Hébergeur de fichiers indépendant

Tracé 05 SEP 18 112643 AM.gpx

À propos

Type de fichier
Fichier GPX de 136 Ko (application/xml)
Confidentialité
Fichier public, envoyé le 6 septembre 2018 à 21:26, depuis l'adresse IP 78.220.x.x (France)
Sécurité
Ne contient aucun Virus ou Malware connus - Dernière vérification: 2 jours
Statistiques
La présente page de téléchargement a été vue 173 fois depuis l'envoi du fichier
Page de téléchargement

Aperçu du fichier


<?xml version="1.0" encoding="UTF-8" standalone="no" ?><gpx xmlns="http://www.topografix.com/GPX/1/1" xmlns:gpxx="http://www.garmin.com/xmlschemas/GpxExtensions/v3" xmlns:wptx1="http://www.garmin.com/xmlschemas/WaypointExtension/v1" xmlns:gpxtpx="http://www.garmin.com/xmlschemas/TrackPointExtension/v1" creator="Dakota 10" version="1.1" xmlns:xsi="http://www.w3.org/2001/XMLSchema-instance" xsi:schemaLocation="http://www.topografix.com/GPX/1/1 http://www.topografix.com/GPX/1/1/gpx.xsd http://www.garmin.com/xmlschemas/GpxExtensions/v3 http://www8.garmin.com/xmlschemas/GpxExtensionsv3.xsd http://www.garmin.com/xmlschemas/WaypointExtension/v1 http://www8.garmin.com/xmlschemas/WaypointExtensionv1.xsd http://www.garmin.com/xmlschemas/TrackPointExtension/v1 http://www.garmin.com/xmlschemas/TrackPointExtensionv1.xsd"><metadata><link href="http://www.garmin.com"><text>Garmin International</text></link><time>2018-09-05T09:26:45Z</time></metadata><trk><name>05-SEP-18 11:26:43 AM</name><extensions><gpxx:TrackExtension><gpxx:DisplayColor>Red</gpxx:DisplayColor></gpxx:TrackExtension></extensions><trkseg><trkpt lat="49.5173413865" lon="-1.8123266380"><ele>89.54</ele><time>2018-09-05T06:34:02Z</time></trkpt><trkpt lat="49.5173160732" lon="-1.8123449106"><ele>85.21</ele><time>2018-09-05T06:34:19Z</time></trkpt><trkpt lat="49.5173265506" lon="-1.8123729900"><ele>85.21</ele><time>2018-09-05T06:34:50Z</time></trkpt><trkpt lat="49.5173150674" lon="-1.8123419769"><ele>89.06</ele><time>2018-09-05T06:35:18Z</time></trkpt><trkpt lat="49.5173201803" lon="-1.8123390432"><ele>88.58</ele><time>2018-09-05T06:35:38Z</time></trkpt><trkpt lat="49.5173346810" lon="-1.8123198487"><ele>88.58</ele><time>2018-09-05T06:36:00Z</time></trkpt><trkpt lat="49.5173264667" lon="-1.8123378698"><ele>87.62</ele><time>2018-09-05T06:36:17Z</time></trkpt><trkpt lat="49.5173180010" lon="-1.8123269733"><ele>87.62</ele><time>2018-09-05T06:36:19Z</time></trkpt><trkpt lat="49.5172690507" lon="-1.8123060185"><ele>87.62</ele><time>2018-09-05T06:36:23Z</time></trkpt><trkpt lat="49.5170030929" lon="-1.8123827968"><ele>86.18</ele><time>2018-09-05T06:36:37Z</time></trkpt><trkpt lat="49.5166867599" lon="-1.8124189228"><ele>87.14</ele><time>2018-09-05T06:36:51Z</time></trkpt><trkpt lat="49.5166699961" lon="-1.8124210183"><ele>87.62</ele><time>2018-09-05T06:36:52Z</time></trkpt><trkpt lat="49.5166119933" lon="-1.8127195816"><ele>87.14</ele><time>2018-09-05T06:37:00Z</time></trkpt><trkpt lat="49.5165300183" lon="-1.8130256888"><ele>85.69</ele><time>2018-09-05T06:37:04Z</time></trkpt><trkpt lat="49.5162897091" lon="-1.8133116793"><ele>81.85</ele><time>2018-09-05T06:37:09Z</time></trkpt><trkpt lat="49.5158200711" lon="-1.8134079035"><ele>80.41</ele><time>2018-09-05T06:37:22Z</time></trkpt><trkpt lat="49.5154920034" lon="-1.8137246557"><ele>81.85</ele><time>2018-09-05T06:37:36Z</time></trkpt><trkpt lat="49.5151120517" lon="-1.8138662260"><ele>85.21</ele><time>2018-09-05T06:37:48Z</time></trkpt><trkpt lat="49.5150261372" lon="-1.8139011785"><ele>86.18</ele><time>2018-09-05T06:37:51Z</time></trkpt><trkpt lat="49.5150036737" lon="-1.8144333456"><ele>85.69</ele><time>2018-09-05T06:37:59Z</time></trkpt><trkpt lat="49.5150516182" lon="-1.8148640078"><ele>83.29</ele><time>2018-09-05T06:38:03Z</time></trkpt><trkpt lat="49.5153047517" lon="-1.8166517001"><ele>76.08</ele><time>2018-09-05T06:38:17Z</time></trkpt><trkpt lat="49.5153744891" lon="-1.8169578910"><ele>76.08</ele><time>2018-09-05T06:38:20Z</time></trkpt><trkpt lat="49.5153858047" lon="-1.8171312287"><ele>76.08</ele><time>2018-09-05T06:38:22Z</time></trkpt><trkpt lat="49.5155168977" lon="-1.8173498288"><ele>76.56</ele><time>2018-09-05T06:38:26Z</time></trkpt><trkpt lat="49.5161489770" lon="-1.8181047030"><ele>78.00</ele><time>2018-09-05T06:38:41Z</time></trkpt><trkpt lat="49.5170969702" lon="-1.8189532869"><ele>74.64</ele><time>2018-09-05T06:38:58Z</time></trkpt><trkpt lat="49.5177200809" lon="-1.8194414489"><ele>71.76</ele><time>2018-09-05T06:39:07Z</time></trkpt><trkpt lat="49.5181478932" lon="-1.8198602926"><ele>70.31</ele><time>2018-09-05T06:39:15Z</time></trkpt><trkpt lat="49.5183043834" lon="-1.8200949859"><ele>69.35</ele><time>2018-09-05T06:39:18Z</time></trkpt><trkpt lat="49.5185490511" lon="-1.8206366245"><ele>67.43</ele><time>2018-09-05T06:39:23Z</time></trkpt><trkpt lat="49.5188220497" lon="-1.8209330924"><ele>65.03</ele><time>2018-09-05T06:39:27Z</time></trkpt><trkpt lat="49.5189220458" lon="-1.8211904168"><ele>64.07</ele><time>2018-09-05T06:39:32Z</time></trkpt><trkpt lat="49.5190234669" lon="-1.8214318994"><ele>63.58</ele><time>2018-09-05T06:39:38Z</time></trkpt><trkpt lat="49.5192637760" lon="-1.8217755575"><ele>65.03</ele><time>2018-09-05T06:39:48Z</time></trkpt><trkpt lat="49.5192862395" lon="-1.8219029624"><ele>65.99</ele><time>2018-09-05T06:39:51Z</time></trkpt><trkpt lat="49.5193560608" lon="-1.8222208042"><ele>65.99</ele><time>2018-09-05T06:39:59Z</time></trkpt><trkpt lat="49.5194305759" lon="-1.8225965649"><ele>66.95</ele><time>2018-09-05T06:40:10Z</time></trkpt><trkpt lat="49.5194942784" lon="-1.8229168374"><ele>68.87</ele><time>2018-09-05T06:40:18Z</time></trkpt><trkpt lat="49.5194617566" lon="-1.8236843683"><ele>78.97</ele><time>2018-09-05T06:40:31Z</time></trkpt><trkpt lat="49.5195506047" lon="-1.8242493086"><ele>77.52</ele><time>2018-09-05T06:40:41Z</time></trkpt><trkpt lat="49.5195671171" lon="-1.8246633746"><ele>72.72</ele><time>2018-09-05T06:40:49Z</time></trkpt><trkpt lat="49.5195813663" lon="-1.8248352874"><ele>72.24</ele><time>2018-09-05T06:40:51Z</time></trkpt><trkpt lat="49.5195933525" lon="-1.8252272252"><ele>71.27</ele><time>2018-09-05T06:40:55Z</time></trkpt><trkpt lat="49.5195990521" lon="-1.8255353440"><ele>71.27</ele><time>2018-09-05T06:40:58Z</time></trkpt><trkpt lat="49.5196184982" lon="-1.8258900661"><ele>71.76</ele><time>2018-09-05T06:41:02Z</time></trkpt><trkpt lat="49.5197951049" lon="-1.8260511663"><ele>69.83</ele><time>2018-09-05T06:41:10Z</time></trkpt><trkpt lat="49.5198210888" lon="-1.8260435387"><ele>69.83</ele><time>2018-09-05T06:41:11Z</time></trkpt><trkpt lat="49.5203160401" lon="-1.8259999529"><ele>71.27</ele><time>2018-09-05T06:41:25Z</time></trkpt><trkpt lat="49.5207518153" lon="-1.8260320555"><ele>71.76</ele><time>2018-09-05T06:41:37Z</time></trkpt><trkpt lat="49.5211667195" lon="-1.8259675149"><ele>72.72</ele><time>2018-09-05T06:41:48Z</time></trkpt><trkpt lat="49.5213042665" lon="-1.8259442132"><ele>73.20</ele><time>2018-09-05T06:41:51Z</time></trkpt><trkpt lat="49.5219220128" lon="-1.8258944247"><ele>72.72</ele><time>2018-09-05T06:42:03Z</time></trkpt><trkpt lat="49.5221173111" lon="-1.8259201571"><ele>72.24</ele><time>2018-09-05T06:42:07Z</time></trkpt><trkpt lat="49.5230386499" lon="-1.8260046467"><ele>69.35</ele><time>2018-09-05T06:42:22Z</time></trkpt><trkpt lat="49.5238291472" lon="-1.8259686884"><ele>64.07</ele><time>2018-09-05T06:42:31Z</time></trkpt><trkpt lat="49.5246542618" lon="-1.8258639984"><ele>58.78</ele><time>2018-09-05T06:42:42Z</time></trkpt><trkpt lat="49.5251323655" lon="-1.8258471508"><ele>57.82</ele><time>2018-09-05T06:42:51Z</time></trkpt><trkpt lat="49.5252678171" lon="-1.8258268666"><ele>57.34</ele><time>2018-09-05T06:42:54Z</time></trkpt><trkpt lat="49.5260054246" lon="-1.8256614078"><ele>53.97</ele><time>2018-09-05T06:43:07Z</time></trkpt><trkpt lat="49.5268567745" lon="-1.8255434744"><ele>57.82</ele><time>2018-09-05T06:43:23Z</time></trkpt><trkpt lat="49.5269027911" lon="-1.8255362660"><ele>57.82</ele><time>2018-09-05T06:43:24Z</time></trkpt><trkpt lat="49.5271382388" lon="-1.8255541194"><ele>57.34</ele><time>2018-09-05T06:43:29Z</time></trkpt><trkpt lat="49.5275795460" lon="-1.8255930953"><ele>57.34</ele><time>2018-09-05T06:43:37Z</time></trkpt><trkpt lat="49.5278641954" lon="-1.8253583182"><ele>56.86</ele><time>2018-09-05T06:43:44Z</time></trkpt><trkpt lat="49.5280786045" lon="-1.8241418526"><ele>54.45</ele><time>2018-09-05T06:44:00Z</time></trkpt><trkpt lat="49.5281151496" lon="-1.8237338215"><ele>53.97</ele><time>2018-09-05T06:44:05Z</time></trkpt><trkpt lat="49.5282226894" lon="-1.8232785165"><ele>54.45</ele><time>2018-09-05T06:44:11Z</time></trkpt><trkpt lat="49.5283002220" lon="-1.8230367824"><ele>53.49</ele><time>2018-09-05T06:44:15Z</time></trkpt><trkpt lat="49.5283741504" lon="-1.8225229718"><ele>52.53</ele><time>2018-09-05T06:44:26Z</time></trkpt><trkpt lat="49.5283781737" lon="-1.8224402424"><ele>52.53</ele><time>2018-09-05T06:44:34Z</time></trkpt><trkpt lat="49.5283768326" lon="-1.8224383984"><ele>52.53</ele><time>2018-09-05T06:44:38Z</time></trkpt><trkpt lat="49.5283706300" lon="-1.8224267475"><ele>53.01</ele><time>2018-09-05T06:44:40Z</time></trkpt><trkpt lat="49.5283983741" lon="-1.8222907931"><ele>55.89</ele><time>2018-09-05T06:44:51Z</time></trkpt><trkpt lat="49.5284232683" lon="-1.8221460376"><ele>56.86</ele><time>2018-09-05T06:45:04Z</time></trkpt><trkpt lat="49.5284298901" lon="-1.8221446965"><ele>56.86</ele><time>2018-09-05T06:45:07Z</time></trkpt><trkpt lat="49.5284905750" lon="-1.8217235059"><ele>55.89</ele><time>2018-09-05T06:45:22Z</time></trkpt><trkpt lat="49.5285796747" lon="-1.8211538717"><ele>55.41</ele><time>2018-09-05T06:45:34Z</time></trkpt><trkpt lat="49.5285929181" lon="-1.8206593394"><ele>54.45</ele><time>2018-09-05T06:45:44Z</time></trkpt><trkpt lat="49.5287277829" lon="-1.8199591152"><ele>53.01</ele><time>2018-09-05T06:45:56Z</time></trkpt><trkpt lat="49.5288403518" lon="-1.8195380084"><ele>52.05</ele><time>2018-09-05T06:46:03Z</time></trkpt><trkpt lat="49.5291055553" lon="-1.8191516865"><ele>51.09</ele><time>2018-09-05T06:46:11Z</time></trkpt><trkpt lat="49.5292947348" lon="-1.8188458309"><ele>50.61</ele><time>2018-09-05T06:46:18Z</time></trkpt><trkpt lat="49.5293910429" lon="-1.8187184259"><ele>50.13</ele><time>2018-09-05T06:46:21Z</time></trkpt><trkpt lat="49.5294945594" lon="-1.8185978942"><ele>50.13</ele><time>2018-09-05T06:46:24Z</time></trkpt><trkpt lat="49.5296114031" lon="-1.8184806313"><ele>49.65</ele><time>2018-09-05T06:46:27Z</time></trkpt><trkpt lat="49.5300166681" lon="-1.8181491271"><ele>49.16</ele><time>2018-09-05T06:46:35Z</time></trkpt><trkpt lat="49.5303326659" lon="-1.8179151043"><ele>48.68</ele><time>2018-09-05T06:46:40Z</time></trkpt><trkpt lat="49.5311509073" lon="-1.8173242640"><ele>45.80</ele><time>2018-09-05T06:46:51Z</time></trkpt><trkpt lat="49.5312219020" lon="-1.8172460608"><ele>45.80</ele><time>2018-09-05T06:46:52Z</time></trkpt><trkpt lat="49.5315285120" lon="-1.8166203517"><ele>40.99</ele><time>2018-09-05T06:46:58Z</time></trkpt><trkpt lat="49.5317685697" lon="-1.8163923640"><ele>40.03</ele><time>2018-09-05T06:47:02Z</time></trkpt><trkpt lat="49.5319331065" lon="-1.8162210379"><ele>40.03</ele><time>2018-09-05T06:47:05Z</time></trkpt><trkpt lat="49.5322040096" lon="-1.8159509730"><ele>40.03</ele><time>2018-09-05T06:47:11Z</time></trkpt><trkpt lat="49.5327796787" lon="-1.8156848475"><ele>39.07</ele><time>2018-09-05T06:47:21Z</time></trkpt><trkpt lat="49.5329749770" lon="-1.8152262736"><ele>35.71</ele><time>2018-09-05T06:47:27Z</time></trkpt><trkpt lat="49.5330219157" lon="-1.8146130536"><ele>31.86</ele><time>2018-09-05T06:47:32Z</time></trkpt><trkpt lat="49.5332209859" lon="-1.8140439223"><ele>28.98</ele><time>2018-09-05T06:47:37Z</time></trkpt><trkpt lat="49.5334566850" lon="-1.8139846623"><ele>27.53</ele><time>2018-09-05T06:47:45Z</time></trkpt><trkpt lat="49.5335829165" lon="-1.8140140828"><ele>28.02</ele><time>2018-09-05T06:47:52Z</time></trkpt><trkpt lat="49.5335738640" lon="-1.8140391447"><ele>25.61</ele><time>2018-09-05T06:48:07Z</time></trkpt><trkpt lat="49.5338704996" lon="-1.8139711674"><ele>26.09</ele><time>2018-09-05T06:48:18Z</time></trkpt><trkpt lat="49.5341908559" lon="-1.8139425851"><ele>26.57</ele><time>2018-09-05T06:48:26Z</time></trkpt><trkpt lat="49.5347163174" lon="-1.8137233146"><ele>27.53</ele><time>2018-09-05T06:48:39Z</time></trkpt><trkpt lat="49.5350137074" lon="-1.8134554289"><ele>28.50</ele><time>2018-09-05T06:48:50Z</time></trkpt><trkpt lat="49.5353012066" lon="-1.8131556921"><ele>29.46</ele><time>2018-09-05T06:49:02Z</time></trkpt><trkpt lat="49.5356243290" lon="-1.8128672708"><ele>33.78</ele><time>2018-09-05T06:49:14Z</time></trkpt><trkpt lat="49.5358976629" lon="-1.8126662727"><ele>36.19</ele><time>2018-09-05T06:49:24Z</time></trkpt><trkpt lat="49.5360528957" lon="-1.8123544659"><ele>36.19</ele><time>2018-09-05T06:49:32Z</time></trkpt><trkpt lat="49.5361418277" lon="-1.8117713369"><ele>39.07</ele><time>2018-09-05T06:49:44Z</time></trkpt><trkpt lat="49.5361564122" lon="-1.8113006093"><ele>43.40</ele><time>2018-09-05T06:49:56Z</time></trkpt><trkpt lat="49.5360425021" lon="-1.8107765727"><ele>44.84</ele><time>2018-09-05T06:50:09Z</time></trkpt><trkpt lat="49.5359078050" lon="-1.8101128936"><ele>47.24</ele><time>2018-09-05T06:50:23Z</time></trkpt><trkpt lat="49.5357702579" lon="-1.8095828220"><ele>47.72</ele><time>2018-09-05T06:50:35Z</time></trkpt><trkpt lat="49.5356226526" lon="-1.8088852800"><ele>49.16</ele><time>2018-09-05T06:50:49Z</time></trkpt><trkpt lat="49.5355486404" lon="-1.8082398735"><ele>52.05</ele><time>2018-09-05T06:51:04Z</time></trkpt><trkpt lat="49.5354082435" lon="-1.8077346962"><ele>54.93</ele><time>2018-09-05T06:51:19Z</time></trkpt><trkpt lat="49.5351966843" lon="-1.8074606080"><ele>58.30</ele><time>2018-09-05T06:51:31Z</time></trkpt><trkpt lat="49.5349718817" lon="-1.8072202988"><ele>60.70</ele><time>2018-09-05T06:51:43Z</time></trkpt><trkpt lat="49.5347228553" lon="-1.8068679236"><ele>60.22</ele><time>2018-09-05T06:51:55Z</time></trkpt><trkpt lat="49.5344640221" lon="-1.8063042406"><ele>62.62</ele><time>2018-09-05T06:52:10Z</time></trkpt><trkpt lat="49.5343668759" lon="-1.8057493586"><ele>65.03</ele><time>2018-09-05T06:52:24Z</time></trkpt><trkpt lat="49.5342640299" lon="-1.8053295091"><ele>65.51</ele><time>2018-09-05T06:52:35Z</time></trkpt><trkpt lat="49.5341712423" lon="-1.8048860226"><ele>65.99</ele><time>2018-09-05T06:52:47Z</time></trkpt><trkpt lat="49.5340678096" lon="-1.8043998722"><ele>65.99</ele><time>2018-09-05T06:53:00Z</time></trkpt><trkpt lat="49.5339508820" lon="-1.8039199244"><ele>73.20</ele><time>2018-09-05T06:53:15Z</time></trkpt><trkpt lat="49.5339179412" lon="-1.8034296669"><ele>78.00</ele><time>2018-09-05T06:53:27Z</time></trkpt><trkpt lat="49.5338093955" lon="-1.8029083963"><ele>82.33</ele><time>2018-09-05T06:53:41Z</time></trkpt><trkpt lat="49.5336569287" lon="-1.8024298735"><ele>86.66</ele><time>2018-09-05T06:53:55Z</time></trkpt><trkpt lat="49.5335322060" lon="-1.8019574694"><ele>90.50</ele><time>2018-09-05T06:54:08Z</time></trkpt><trkpt lat="49.5334074832" lon="-1.8015413079"><ele>91.94</ele><time>2018-09-05T06:54:20Z</time></trkpt><trkpt lat="49.5332931541" lon="-1.8009253219"><ele>92.42</ele><time>2018-09-05T06:54:33Z</time></trkpt><trkpt lat="49.5332710259" lon="-1.8005705997"><ele>90.98</ele><time>2018-09-05T06:54:39Z</time></trkpt><trkpt lat="49.5332825929" lon="-1.8004353996"><ele>90.50</ele><time>2018-09-05T06:54:41Z</time></trkpt><trkpt lat="49.5333016198" lon="-1.8003106769"><ele>90.50</ele><time>2018-09-05T06:54:43Z</time></trkpt><trkpt lat="49.5333831757" lon="-1.8000094313"><ele>90.02</ele><time>2018-09-05T06:54:47Z</time></trkpt><trkpt lat="49.5334189665" lon="-1.7997042462"><ele>90.50</ele><time>2018-09-05T06:54:51Z</time></trkpt><trkpt lat="49.5334362332" lon="-1.7994765099"><ele>90.98</ele><time>2018-09-05T06:54:54Z</time></trkpt><trkpt lat="49.5334788971" lon="-1.7991144955"><ele>91.94</ele><time>2018-09-05T06:54:59Z</time></trkpt><trkpt lat="49.5336791407" lon="-1.7986265849"><ele>93.39</ele><time>2018-09-05T06:55:10Z</time></trkpt><trkpt lat="49.5339107327" lon="-1.7983788159"><ele>96.75</ele><time>2018-09-05T06:55:21Z</time></trkpt><trkpt lat="49.5341520477" lon="-1.7978930846"><ele>102.04</ele><time>2018-09-05T06:55:35Z</time></trkpt><trkpt lat="49.5343458373" lon="-1.7974923458"><ele>103.96</ele><time>2018-09-05T06:55:47Z</time></trkpt><trkpt lat="49.5344719850" lon="-1.7970698141"><ele>103.96</ele><time>2018-09-05T06:56:00Z</time></trkpt><trkpt lat="49.5345113799" lon="-1.7966705840"><ele>106.36</ele><time>2018-09-05T06:56:11Z</time></trkpt><trkpt lat="49.5345901698" lon="-1.7963291053"><ele>112.13</ele><time>2018-09-05T06:56:21Z</time></trkpt><trkpt lat="49.5346551295" lon="-1.7962291092"><ele>114.53</ele><time>2018-09-05T06:56:26Z</time></trkpt><trkpt lat="49.5348083507" lon="-1.7960424442"><ele>119.82</ele><time>2018-09-05T06:56:37Z</time></trkpt><trkpt lat="49.5348491706" lon="-1.7959821783"><ele>121.74</ele><time>2018-09-05T06:56:42Z</time></trkpt><trkpt lat="49.5348870568" lon="-1.7958639096"><ele>123.19</ele><time>2018-09-05T06:56:46Z</time></trkpt><trkpt lat="49.5350743085" lon="-1.7952919286"><ele>124.63</ele><time>2018-09-05T06:56:56Z</time></trkpt><trkpt lat="49.5354092494" lon="-1.7945840769"><ele>121.74</ele><time>2018-09-05T06:57:09Z</time></trkpt><trkpt lat="49.5358225610" lon="-1.7938091699"><ele>120.78</ele><time>2018-09-05T06:57:18Z</time></trkpt><trkpt lat="49.5360179432" lon="-1.7932910006"><ele>119.34</ele><time>2018-09-05T06:57:24Z</time></trkpt><trkpt lat="49.5362712443" lon="-1.7924042791"><ele>118.38</ele><time>2018-09-05T06:57:37Z</time></trkpt><trkpt lat="49.5362885110" lon="-1.7923453543"><ele>118.86</ele><time>2018-09-05T06:57:38Z</time></trkpt><trkpt lat="49.5364060253" lon="-1.7921515647"><ele>120.30</ele><time>2018-09-05T06:57:43Z</time></trkpt><trkpt lat="49.5365682151" lon="-1.7921140976"><ele>123.19</ele><time>2018-09-05T06:57:50Z</time></trkpt><trkpt lat="49.5367919281" lon="-1.7919094115"><ele>125.59</ele><time>2018-09-05T06:58:01Z</time></trkpt><trkpt lat="49.5369920880" lon="-1.7915850319"><ele>126.07</ele><time>2018-09-05T06:58:12Z</time></trkpt><trkpt lat="49.5372230932" lon="-1.7911821976"><ele>127.03</ele><time>2018-09-05T06:58:21Z</time></trkpt><trkpt lat="49.5375254285" lon="-1.7909060977"><ele>127.03</ele><time>2018-09-05T06:58:30Z</time></trkpt><trkpt lat="49.5379161928" lon="-1.7908309959"><ele>129.43</ele><time>2018-09-05T06:58:41Z</time></trkpt><trkpt lat="49.5381956454" lon="-1.7907008249"><ele>128.47</ele><time>2018-09-05T06:58:52Z</time></trkpt><trkpt lat="49.5384248067" lon="-1.7905462626"><ele>128.95</ele><time>2018-09-05T06:59:00Z</time></trkpt><trkpt lat="49.5387242921" lon="-1.7904637847"><ele>128.95</ele><time>2018-09-05T06:59:09Z</time></trkpt><trkpt lat="49.5390892401" lon="-1.7903531436"><ele>129.43</ele><time>2018-09-05T06:59:17Z</time></trkpt><trkpt lat="49.5394163858" lon="-1.7902668938"><ele>130.40</ele><time>2018-09-05T06:59:27Z</time></trkpt><trkpt lat="49.5397996902" lon="-1.7904384714"><ele>130.88</ele><time>2018-09-05T06:59:37Z</time></trkpt><trkpt lat="49.5401145983" lon="-1.7906299978"><ele>129.92</ele><time>2018-09-05T06:59:44Z</time></trkpt><trkpt lat="49.5403582603" lon="-1.7906229571"><ele>128.95</ele><time>2018-09-05T06:59:50Z</time></trkpt><trkpt lat="49.5410903357" lon="-1.7906279024"><ele>128.47</ele><time>2018-09-05T07:00:05Z</time></trkpt><trkpt lat="49.5412395336" lon="-1.7906542215"><ele>129.43</ele><time>2018-09-05T07:00:08Z</time></trkpt><trkpt lat="49.5416612271" lon="-1.7907889187"><ele>129.92</ele><time>2018-09-05T07:00:17Z</time></trkpt><trkpt lat="49.5420390833" lon="-1.7909620050"><ele>130.88</ele><time>2018-09-05T07:00:25Z</time></trkpt><trkpt lat="49.5424850006" lon="-1.7913302220"><ele>131.36</ele><time>2018-09-05T07:00:35Z</time></trkpt><trkpt lat="49.5430621784" lon="-1.7917003669"><ele>131.36</ele><time>2018-09-05T07:00:46Z</time></trkpt><trkpt lat="49.5434051659" lon="-1.7918747943"><ele>131.36</ele><time>2018-09-05T07:00:52Z</time></trkpt><trkpt lat="49.5438252669" lon="-1.7919694260"><ele>130.88</ele><time>2018-09-05T07:00:59Z</time></trkpt><trkpt lat="49.5441754628" lon="-1.7920738645"><ele>130.88</ele><time>2018-09-05T07:01:05Z</time></trkpt><trkpt lat="49.5442862716" lon="-1.7921250779"><ele>131.36</ele><time>2018-09-05T07:01:07Z</time></trkpt><trkpt lat="49.5444313623" lon="-1.7922316119"><ele>131.36</ele><time>2018-09-05T07:01:10Z</time></trkpt><trkpt lat="49.5446297619" lon="-1.7927600909"><ele>130.88</ele><time>2018-09-05T07:01:18Z</time></trkpt><trkpt lat="49.5446460228" lon="-1.7930996418"><ele>130.40</ele><time>2018-09-05T07:01:22Z</time></trkpt><trkpt lat="49.5448148344" lon="-1.7934152205"><ele>129.43</ele><time>2018-09-05T07:01:27Z</time></trkpt><trkpt lat="49.5451848116" lon="-1.7936970200"><ele>127.03</ele><time>2018-09-05T07:01:34Z</time></trkpt><trkpt lat="49.5455040783" lon="-1.7940993514"><ele>123.19</ele><time>2018-09-05T07:01:40Z</time></trkpt><trkpt lat="49.5456174016" lon="-1.7942829151"><ele>121.74</ele><time>2018-09-05T07:01:42Z</time></trkpt><trkpt lat="49.5460981876" lon="-1.7948086280"><ele>117.42</ele><time>2018-09-05T07:01:49Z</time></trkpt><trkpt lat="49.5461758878" lon="-1.7948717438"><ele>116.46</ele><time>2018-09-05T07:01:51Z</time></trkpt><trkpt lat="49.5465724356" lon="-1.7952851392"><ele>113.09</ele><time>2018-09-05T07:01:59Z</time></trkpt><trkpt lat="49.5471057761" lon="-1.7966655549"><ele>107.32</ele><time>2018-09-05T07:02:14Z</time></trkpt><trkpt lat="49.5471336041" lon="-1.7967784591"><ele>106.84</ele><time>2018-09-05T07:02:15Z</time></trkpt><trkpt lat="49.5477532782" lon="-1.7984933965"><ele>98.19</ele><time>2018-09-05T07:02:31Z</time></trkpt><trkpt lat="49.5481244288" lon="-1.7998030689"><ele>94.35</ele><time>2018-09-05T07:02:42Z</time></trkpt><trkpt lat="49.5485002734" lon="-1.8012966402"><ele>92.42</ele><time>2018-09-05T07:02:55Z</time></trkpt><trkpt lat="49.5485531632" lon="-1.8017833773"><ele>91.46</ele><time>2018-09-05T07:03:00Z</time></trkpt><trkpt lat="49.5486018620" lon="-1.8023536820"><ele>90.50</ele><time>2018-09-05T07:03:07Z</time></trkpt><trkpt lat="49.5486374851" lon="-1.8026939873"><ele>90.02</ele><time>2018-09-05T07:03:11Z</time></trkpt><trkpt lat="49.5486606192" lon="-1.8032114021"><ele>90.50</ele><time>2018-09-05T07:03:17Z</time></trkpt><trkpt lat="49.5486673247" lon="-1.8034437485"><ele>90.98</ele><time>2018-09-05T07:03:20Z</time></trkpt><trkpt lat="49.5486823283" lon="-1.8036745861"><ele>92.42</ele><time>2018-09-05T07:03:23Z</time></trkpt><trkpt lat="49.5487359725" lon="-1.8040532805"><ele>94.35</ele><time>2018-09-05T07:03:29Z</time></trkpt><trkpt lat="49.5487488806" lon="-1.8042406160"><ele>95.31</ele><time>2018-09-05T07:03:32Z</time></trkpt><trkpt lat="49.5489305165" lon="-1.8048332166"><ele>96.75</ele><time>2018-09-05T07:03:41Z</time></trkpt><trkpt lat="49.5490434207" lon="-1.8052114081"><ele>96.75</ele><time>2018-09-05T07:03:46Z</time></trkpt><trkpt lat="49.5491844881" lon="-1.8056398910"><ele>98.67</ele><time>2018-09-05T07:03:52Z</time></trkpt><trkpt lat="49.5492659602" lon="-1.8058599997"><ele>98.67</ele><time>2018-09-05T07:03:55Z</time></trkpt><trkpt lat="49.5494884998" lon="-1.8062531948"><ele>99.15</ele><time>2018-09-05T07:04:01Z</time></trkpt><trkpt lat="49.5497022383" lon="-1.8064883910"><ele>99.15</ele><time>2018-09-05T07:04:06Z</time></trkpt><trkpt lat="49.5499765780" lon="-1.8067132775"><ele>99.63</ele><time>2018-09-05T07:04:12Z</time></trkpt><trkpt lat="49.5502367523" lon="-1.8069324642"><ele>99.63</ele><time>2018-09-05T07:04:18Z</time></trkpt><trkpt lat="49.5504679251" lon="-1.8071906269"><ele>99.63</ele><time>2018-09-05T07:04:23Z</time></trkpt><trkpt lat="49.5506364014" lon="-1.8074571714"><ele>99.15</ele><time>2018-09-05T07:04:27Z</time></trkpt><trkpt lat="49.5507052168" lon="-1.8076124880"><ele>98.67</ele><time>2018-09-05T07:04:29Z</time></trkpt><trkpt lat="49.5508199651" lon="-1.8079213612"><ele>98.19</ele><time>2018-09-05T07:04:33Z</time></trkpt><trkpt lat="49.5509787183" lon="-1.8081566412"><ele>96.27</ele><time>2018-09-05T07:04:39Z</time></trkpt><trkpt lat="49.5510440134" lon="-1.8078054395"><ele>93.39</ele><time>2018-09-05T07:04:49Z</time></trkpt><trkpt lat="49.5510440134" lon="-1.8077541422"><ele>92.90</ele><time>2018-09-05T07:04:50Z</time></trkpt><trkpt lat="49.5509942248" lon="-1.8072263338"><ele>89.06</ele><time>2018-09-05T07:05:02Z</time></trkpt><trkpt lat="49.5508983359" lon="-1.8068965897"><ele>88.10</ele><time>2018-09-05T07:05:07Z</time></trkpt><trkpt lat="49.5508195460" lon="-1.8066526763"><ele>87.14</ele><time>2018-09-05T07:05:11Z</time></trkpt><trkpt lat="49.5507617947" lon="-1.8063786719"><ele>85.69</ele><time>2018-09-05T07:05:15Z</time></trkpt><trkpt lat="49.5508146007" lon="-1.8053855840"><ele>80.89</ele><time>2018-09-05T07:05:24Z</time></trkpt><trkpt lat="49.5508075599" lon="-1.8049992621"><ele>79.93</ele><time>2018-09-05T07:05:27Z</time></trkpt><trkpt lat="49.5507705957" lon="-1.8045799155"><ele>79.93</ele><time>2018-09-05T07:05:31Z</time></trkpt><trkpt lat="49.5507123414" lon="-1.8042620737"><ele>79.45</ele><time>2018-09-05T07:05:34Z</time></trkpt><trkpt lat="49.5506769698" lon="-1.8039310724"><ele>78.48</ele><time>2018-09-05T07:05:38Z</time></trkpt><trkpt lat="49.5506903809" lon="-1.8028689176"><ele>78.97</ele><time>2018-09-05T07:05:49Z</time></trkpt><trkpt lat="49.5508241560" lon="-1.8023260217"><ele>82.33</ele><time>2018-09-05T07:06:00Z</time></trkpt><trkpt lat="49.5509012695" lon="-1.8022671808"><ele>82.33</ele><time>2018-09-05T07:06:02Z</time></trkpt><trkpt lat="49.5511354599" lon="-1.8019415438"><ele>82.33</ele><time>2018-09-05T07:06:08Z</time></trkpt><trkpt lat="49.5514677186" lon="-1.8010383099"><ele>84.73</ele><time>2018-09-05T07:06:22Z</time></trkpt><trkpt lat="49.5514952950" lon="-1.8009932153"><ele>84.73</ele><time>2018-09-05T07:06:23Z</time></trkpt><trkpt lat="49.5516247116" lon="-1.8008619547"><ele>85.69</ele><time>2018-09-05T07:06:27Z</time></trkpt><trkpt lat="49.5521973632" lon="-1.8005033769"><ele>89.54</ele><time>2018-09-05T07:06:43Z</time></trkpt><trkpt lat="49.5526209846" lon="-1.7999281269"><ele>93.87</ele><time>2018-09-05T07:06:58Z</time></trkpt><trkpt lat="49.5529291034" lon="-1.7992336862"><ele>97.23</ele><time>2018-09-05T07:07:12Z</time></trkpt><trkpt lat="49.5531852543" lon="-1.7986471206"><ele>99.15</ele><time>2018-09-05T07:07:26Z</time></trkpt><trkpt lat="49.5534482785" lon="-1.7983477190"><ele>99.63</ele><time>2018-09-05T07:07:37Z</time></trkpt><trkpt lat="49.5537734963" lon="-1.7982308753"><ele>101.56</ele><time>2018-09-05T07:07:47Z</time></trkpt><trkpt lat="49.5540588163" lon="-1.7979587149"><ele>103.00</ele><time>2018-09-05T07:07:57Z</time></trkpt><trkpt lat="49.5541445632" lon="-1.7978403624"><ele>104.44</ele><time>2018-09-05T07:08:02Z</time></trkpt><trkpt lat="49.5542493369" lon="-1.7978207488"><ele>105.88</ele><time>2018-09-05T07:08:06Z</time></trkpt><trkpt lat="49.5543258637" lon="-1.7978528515"><ele>106.36</ele><time>2018-09-05T07:08:09Z</time></trkpt><trkpt lat="49.5547544304" lon="-1.7981123552"><ele>107.81</ele><time>2018-09-05T07:08:21Z</time></trkpt><trkpt lat="49.5552917942" lon="-1.7984774709"><ele>105.88</ele><time>2018-09-05T07:08:35Z</time></trkpt><trkpt lat="49.5555772819" lon="-1.7986694165"><ele>104.92</ele><time>2018-09-05T07:08:45Z</time></trkpt><trkpt lat="49.5556610171" lon="-1.7987244017"><ele>104.92</ele><time>2018-09-05T07:08:48Z</time></trkpt><trkpt lat="49.5556403976" lon="-1.7991263978"><ele>104.92</ele><time>2018-09-05T07:08:57Z</time></trkpt><trkpt lat="49.5556331053" lon="-1.7991835624"><ele>105.40</ele><time>2018-09-05T07:08:58Z</time></trkpt><trkpt lat="49.5555125736" lon="-1.7997899093"><ele>106.84</ele><time>2018-09-05T07:09:08Z</time></trkpt><trkpt lat="49.5554857515" lon="-1.8000508379"><ele>106.84</ele><time>2018-09-05T07:09:12Z</time></trkpt><trkpt lat="49.5556552336" lon="-1.8001974374"><ele>105.88</ele><time>2018-09-05T07:09:18Z</time></trkpt><trkpt lat="49.5563583914" lon="-1.8005524110"><ele>103.00</ele><time>2018-09-05T07:09:33Z</time></trkpt><trkpt lat="49.5565143786" lon="-1.8006425165"><ele>102.04</ele><time>2018-09-05T07:09:36Z</time></trkpt><trkpt lat="49.5569284447" lon="-1.8009250704"><ele>100.11</ele><time>2018-09-05T07:09:44Z</time></trkpt><trkpt lat="49.5575597696" lon="-1.8013402261"><ele>96.75</ele><time>2018-09-05T07:09:54Z</time></trkpt><trkpt lat="49.5577455964" lon="-1.8014670443"><ele>95.79</ele><time>2018-09-05T07:09:57Z</time></trkpt><trkpt lat="49.5580409747" lon="-1.8016533740"><ele>92.42</ele><time>2018-09-05T07:10:02Z</time></trkpt><trkpt lat="49.5580907632" lon="-1.8018789310"><ele>90.50</ele><time>2018-09-05T07:10:06Z</time></trkpt><trkpt lat="49.5580366161" lon="-1.8026898801"><ele>89.54</ele><time>2018-09-05T07:10:15Z</time></trkpt><trkpt lat="49.5581025817" lon="-1.8037280627"><ele>89.06</ele><time>2018-09-05T07:10:27Z</time></trkpt><trkpt lat="49.5580860693" lon="-1.8048274331"><ele>84.25</ele><time>2018-09-05T07:10:38Z</time></trkpt><trkpt lat="49.5579992328" lon="-1.8053832371"><ele>81.37</ele><time>2018-09-05T07:10:43Z</time></trkpt><trkpt lat="49.5580335986" lon="-1.8056195229"><ele>78.97</ele><time>2018-09-05T07:10:47Z</time></trkpt><trkpt lat="49.5584433898" lon="-1.8061150610"><ele>75.12</ele><time>2018-09-05T07:10:56Z</time></trkpt><trkpt lat="49.5583784301" lon="-1.8063142151"><ele>72.72</ele><time>2018-09-05T07:11:00Z</time></trkpt><trkpt lat="49.5582782663" lon="-1.8064886425"><ele>72.24</ele><time>2018-09-05T07:11:03Z</time></trkpt><trkpt lat="49.5580915175" lon="-1.8068389222"><ele>70.79</ele><time>2018-09-05T07:11:09Z</time></trkpt><trkpt lat="49.5580273122" lon="-1.8069794867"><ele>69.83</ele><time>2018-09-05T07:11:11Z</time></trkpt><trkpt lat="49.5577499550" lon="-1.8075493723"><ele>67.91</ele><time>2018-09-05T07:11:19Z</time></trkpt><trkpt lat="49.5576755237" lon="-1.8078844808"><ele>66.95</ele><time>2018-09-05T07:11:23Z</time></trkpt><trkpt lat="49.5576275792" lon="-1.8085580505"><ele>66.95</ele><time>2018-09-05T07:11:31Z</time></trkpt><trkpt lat="49.5579077024" lon="-1.8092094082"><ele>66.47</ele><time>2018-09-05T07:11:40Z</time></trkpt><trkpt lat="49.5579963829" lon="-1.8093072250"><ele>65.99</ele><time>2018-09-05T07:11:42Z</time></trkpt><trkpt lat="49.5585586410" lon="-1.8099477701"><ele>64.55</ele><time>2018-09-05T07:11:54Z</time></trkpt><trkpt lat="49.5591074880" lon="-1.8106307276"><ele>63.10</ele><time>2018-09-05T07:12:06Z</time></trkpt><trkpt lat="49.5591992699" lon="-1.8107258622"><ele>63.10</ele><time>2018-09-05T07:12:08Z</time></trkpt><trkpt lat="49.5595751982" lon="-1.8110057339"><ele>61.18</ele><time>2018-09-05T07:12:14Z</time></trkpt><trkpt lat="49.5598286670" lon="-1.8111155368"><ele>59.74</ele><time>2018-09-05T07:12:18Z</time></trkpt><trkpt lat="49.5599725004" lon="-1.8112053070"><ele>57.82</ele><time>2018-09-05T07:12:21Z</time></trkpt><trkpt lat="49.5602046791" lon="-1.8112201430"><ele>55.41</ele><time>2018-09-05T07:12:25Z</time></trkpt><trkpt lat="49.5603291504" lon="-1.8111778144"><ele>54.45</ele><time>2018-09-05T07:12:27Z</time></trkpt><trkpt lat="49.5609060768" lon="-1.8111885432"><ele>54.45</ele><time>2018-09-05T07:12:35Z</time></trkpt><trkpt lat="49.5611799974" lon="-1.8111605477"><ele>54.93</ele><time>2018-09-05T07:12:39Z</time></trkpt><trkpt lat="49.5618133340" lon="-1.8112847675"><ele>55.89</ele><time>2018-09-05T07:12:49Z</time></trkpt><trkpt lat="49.5621144958" lon="-1.8114031199"><ele>55.89</ele><time>2018-09-05T07:12:53Z</time></trkpt><trkpt lat="49.5623563137" lon="-1.8116175290"><ele>55.41</ele><time>2018-09-05T07:12:58Z</time></trkpt><trkpt lat="49.5623613428" lon="-1.8117202912"><ele>54.93</ele><time>2018-09-05T07:13:00Z</time></trkpt><trkpt lat="49.5624224469" lon="-1.8119680602"><ele>54.93</ele><time>2018-09-05T07:13:05Z</time></trkpt><trkpt lat="49.5626220200" lon="-1.8124118820"><ele>56.37</ele><time>2018-09-05T07:13:15Z</time></trkpt><trkpt lat="49.5628231019" lon="-1.8125618342"><ele>54.93</ele><time>2018-09-05T07:13:21Z</time></trkpt><trkpt lat="49.5630147960" lon="-1.8126906641"><ele>54.45</ele><time>2018-09-05T07:13:25Z</time></trkpt><trkpt lat="49.5632517524" lon="-1.8128403649"><ele>52.53</ele><time>2018-09-05T07:13:29Z</time></trkpt><trkpt lat="49.5636972506" lon="-1.8131747190"><ele>50.61</ele><time>2018-09-05T07:13:37Z</time></trkpt><trkpt lat="49.5640438423" lon="-1.8137138430"><ele>49.65</ele><time>2018-09-05T07:13:44Z</time></trkpt><trkpt lat="49.5643729158" lon="-1.8142823037"><ele>48.68</ele><time>2018-09-05T07:13:50Z</time></trkpt><trkpt lat="49.5646257978" lon="-1.8146803603"><ele>46.28</ele><time>2018-09-05T07:13:55Z</time></trkpt><trkpt lat="49.5646722335" lon="-1.8151548598"><ele>43.88</ele><time>2018-09-05T07:14:02Z</time></trkpt><trkpt lat="49.5646295696" lon="-1.8153958395"><ele>45.80</ele><time>2018-09-05T07:14:07Z</time></trkpt><trkpt lat="49.5646184217" lon="-1.8158100732"><ele>48.20</ele><time>2018-09-05T07:14:14Z</time></trkpt><trkpt lat="49.5646518655" lon="-1.8162084650"><ele>50.13</ele><time>2018-09-05T07:14:19Z</time></trkpt><trkpt lat="49.5647568069" lon="-1.8168239482"><ele>49.16</ele><time>2018-09-05T07:14:27Z</time></trkpt><trkpt lat="49.5647758339" lon="-1.8170126248"><ele>47.72</ele><time>2018-09-05T07:14:31Z</time></trkpt><trkpt lat="49.5646622591" lon="-1.8173073325"><ele>46.76</ele><time>2018-09-05T07:14:38Z</time></trkpt><trkpt lat="49.5643435791" lon="-1.8176714424"><ele>51.57</ele><time>2018-09-05T07:14:53Z</time></trkpt><trkpt lat="49.5640656352" lon="-1.8180331215"><ele>50.61</ele><time>2018-09-05T07:15:03Z</time></trkpt><trkpt lat="49.5636141021" lon="-1.8186476827"><ele>49.65</ele><time>2018-09-05T07:15:17Z</time></trkpt><trkpt lat="49.5635339711" lon="-1.8187400512"><ele>50.13</ele><time>2018-09-05T07:15:20Z</time></trkpt><trkpt lat="49.5634271018" lon="-1.8188708927"><ele>51.09</ele><time>2018-09-05T07:15:24Z</time></trkpt><trkpt lat="49.5631058235" lon="-1.8194869626"><ele>55.89</ele><time>2018-09-05T07:15:37Z</time></trkpt><trkpt lat="49.5627874788" lon="-1.8200092390"><ele>60.70</ele><time>2018-09-05T07:15:49Z</time></trkpt><trkpt lat="49.5623441599" lon="-1.8204965629"><ele>62.62</ele><time>2018-09-05T07:16:04Z</time></trkpt><trkpt lat="49.5620336104" lon="-1.8209098745"><ele>64.07</ele><time>2018-09-05T07:16:17Z</time></trkpt><trkpt lat="49.5617076382" lon="-1.8213341665"><ele>68.39</ele><time>2018-09-05T07:16:32Z</time></trkpt><trkpt lat="49.5615373179" lon="-1.8217192311"><ele>70.31</ele><time>2018-09-05T07:16:44Z</time></trkpt><trkpt lat="49.5614587795" lon="-1.8218579516"><ele>71.27</ele><time>2018-09-05T07:16:49Z</time></trkpt><trkpt lat="49.5615638047" lon="-1.8219793215"><ele>71.76</ele><time>2018-09-05T07:16:55Z</time></trkpt><trkpt lat="49.5624005701" lon="-1.8221448641"><ele>68.39</ele><time>2018-09-05T07:17:10Z</time></trkpt><trkpt lat="49.5627970342" lon="-1.8221410923"><ele>69.35</ele><time>2018-09-05T07:17:18Z</time></trkpt><trkpt lat="49.5630516764" lon="-1.8221865222"><ele>70.31</ele><time>2018-09-05T07:17:24Z</time></trkpt><trkpt lat="49.5636062231" lon="-1.8223913759"><ele>74.16</ele><time>2018-09-05T07:17:39Z</time></trkpt><trkpt lat="49.5641487837" lon="-1.8226194475"><ele>76.08</ele><time>2018-09-05T07:17:53Z</time></trkpt><trkpt lat="49.5648447331" lon="-1.8228436634"><ele>76.08</ele><time>2018-09-05T07:18:08Z</time></trkpt><trkpt lat="49.5654670894" lon="-1.8229358643"><ele>74.64</ele><time>2018-09-05T07:18:21Z</time></trkpt><trkpt lat="49.5659427624" lon="-1.8230463378"><ele>73.20</ele><time>2018-09-05T07:18:30Z</time></trkpt><trkpt lat="49.5666701440" lon="-1.8233585637"><ele>73.20</ele><time>2018-09-05T07:18:45Z</time></trkpt><trkpt lat="49.5671360940" lon="-1.8234189134"><ele>72.24</ele><time>2018-09-05T07:18:57Z</time></trkpt><trkpt lat="49.5672934223" lon="-1.8233271316"><ele>71.76</ele><time>2018-09-05T07:19:01Z</time></trkpt><trkpt lat="49.5674914028" lon="-1.8235544488"><ele>68.87</ele><time>2018-09-05T07:19:09Z</time></trkpt><trkpt lat="49.5679078158" lon="-1.8239116017"><ele>63.58</ele><time>2018-09-05T07:19:20Z</time></trkpt><trkpt lat="49.5682901144" lon="-1.8241892941"><ele>61.66</ele><time>2018-09-05T07:19:27Z</time></trkpt><trkpt lat="49.5684865862" lon="-1.8243300263"><ele>61.18</ele><time>2018-09-05T07:19:31Z</time></trkpt><trkpt lat="49.5690412167" lon="-1.8247189466"><ele>58.30</ele><time>2018-09-05T07:19:41Z</time></trkpt><trkpt lat="49.5691887382" lon="-1.8248989899"><ele>57.34</ele><time>2018-09-05T07:19:44Z</time></trkpt><trkpt lat="49.5695559494" lon="-1.8250795361"><ele>54.45</ele><time>2018-09-05T07:19:51Z</time></trkpt><trkpt lat="49.5698293671" lon="-1.8252784386"><ele>50.13</ele><time>2018-09-05T07:19:56Z</time></trkpt><trkpt lat="49.5702888630" lon="-1.8256109487"><ele>44.36</ele><time>2018-09-05T07:20:03Z</time></trkpt><trkpt lat="49.5703267492" lon="-1.8260199856"><ele>40.51</ele><time>2018-09-05T07:20:10Z</time></trkpt><trkpt lat="49.5702100731" lon="-1.8268735986"><ele>36.67</ele><time>2018-09-05T07:20:22Z</time></trkpt><trkpt lat="49.5703622047" lon="-1.8270785362"><ele>35.23</ele><time>2018-09-05T07:20:29Z</time></trkpt><trkpt lat="49.5712030772" lon="-1.8277560454"><ele>30.42</ele><time>2018-09-05T07:20:44Z</time></trkpt><trkpt lat="49.5713556278" lon="-1.8278679438"><ele>29.46</ele><time>2018-09-05T07:20:47Z</time></trkpt><trkpt lat="49.5717655029" lon="-1.8280733004"><ele>26.57</ele><time>2018-09-05T07:20:57Z</time></trkpt><trkpt lat="49.5718705282" lon="-1.8280709535"><ele>25.13</ele><time>2018-09-05T07:21:00Z</time></trkpt><trkpt lat="49.5720159542" lon="-1.8279530201"><ele>22.25</ele><time>2018-09-05T07:21:03Z</time></trkpt><trkpt lat="49.5725014340" lon="-1.8281235918"><ele>17.92</ele><time>2018-09-05T07:21:10Z</time></trkpt><trkpt lat="49.5727433357" lon="-1.8281930778"><ele>14.08</ele><time>2018-09-05T07:21:16Z</time></trkpt><trkpt lat="49.5729048550" lon="-1.8283278588"><ele>13.12</ele><time>2018-09-05T07:21:23Z</time></trkpt><trkpt lat="49.5729194395" lon="-1.8283916451"><ele>13.12</ele><time>2018-09-05T07:21:24Z</time></trkpt><trkpt lat="49.5730781090" lon="-1.8290005904"><ele>13.60</ele><time>2018-09-05T07:21:33Z</time></trkpt><trkpt lat="49.5731687173" lon="-1.8294496089"><ele>13.60</ele><time>2018-09-05T07:21:39Z</time></trkpt><trkpt lat="49.5732896682" lon="-1.8297243677"><ele>13.60</ele><time>2018-09-05T07:21:43Z</time></trkpt><trkpt lat="49.5733919274" lon="-1.8299076799"><ele>13.60</ele><time>2018-09-05T07:21:46Z</time></trkpt><trkpt lat="49.5736800972" lon="-1.8300663494"><ele>14.08</ele><time>2018-09-05T07:21:52Z</time></trkpt><trkpt lat="49.5743682515" lon="-1.8299971148"><ele>16.48</ele><time>2018-09-05T07:22:06Z</time></trkpt><trkpt lat="49.5748062897" lon="-1.8299205881"><ele>17.44</ele><time>2018-09-05T07:22:15Z</time></trkpt><trkpt lat="49.5755552966" lon="-1.8297451548"><ele>16.96</ele><time>2018-09-05T07:22:30Z</time></trkpt><trkpt lat="49.5757262036" lon="-1.8297277205"><ele>16.00</ele><time>2018-09-05T07:22:33Z</time></trkpt><trkpt lat="49.5758866332" lon="-1.8297438975"><ele>15.52</ele><time>2018-09-05T07:22:36Z</time></trkpt><trkpt lat="49.5760432072" lon="-1.8297949433"><ele>15.04</ele><time>2018-09-05T07:22:39Z</time></trkpt><trkpt lat="49.5762643218" lon="-1.8297798559"><ele>15.52</ele><time>2018-09-05T07:22:43Z</time></trkpt><trkpt lat="49.5764197223" lon="-1.8297040835"><ele>15.52</ele><time>2018-09-05T07:22:46Z</time></trkpt><trkpt lat="49.5766237378" lon="-1.8297174945"><ele>15.52</ele><time>2018-09-05T07:22:50Z</time></trkpt><trkpt lat="49.5767317805" lon="-1.8297843821"><ele>15.52</ele><time>2018-09-05T07:22:52Z</time></trkpt><trkpt lat="49.5768444333" lon="-1.8298357632"><ele>15.52</ele><time>2018-09-05T07:22:54Z</time></trkpt><trkpt lat="49.5770559926" lon="-1.8298583943"><ele>15.04</ele><time>2018-09-05T07:22:58Z</time></trkpt><trkpt lat="49.5772212837" lon="-1.8298961967"><ele>14.56</ele><time>2018-09-05T07:23:01Z</time></trkpt><trkpt lat="49.5774418954" lon="-1.8299324904"><ele>15.04</ele><time>2018-09-05T07:23:05Z</time></trkpt><trkpt lat="49.5780122839" lon="-1.8297536206"><ele>16.96</ele><time>2018-09-05T07:23:18Z</time></trkpt><trkpt lat="49.5780816022" lon="-1.8297075201"><ele>17.44</ele><time>2018-09-05T07:23:20Z</time></trkpt><trkpt lat="49.5781888906" lon="-1.8296280596"><ele>17.92</ele><time>2018-09-05T07:23:23Z</time></trkpt><trkpt lat="49.5785887912" lon="-1.8295969628"><ele>19.36</ele><time>2018-09-05T07:23:32Z</time></trkpt><trkpt lat="49.5786711853" lon="-1.8295519520"><ele>19.84</ele><time>2018-09-05T07:23:34Z</time></trkpt><trkpt lat="49.5788021944" lon="-1.8295237888"><ele>19.84</ele><time>2018-09-05T07:23:37Z</time></trkpt><trkpt lat="49.5790861733" lon="-1.8295555562"><ele>18.88</ele><time>2018-09-05T07:23:43Z</time></trkpt><trkpt lat="49.5793652907" lon="-1.8295133952"><ele>18.40</ele><time>2018-09-05T07:23:49Z</time></trkpt><trkpt lat="49.5794895105" lon="-1.8294458371"><ele>18.40</ele><time>2018-09-05T07:23:52Z</time></trkpt><trkpt lat="49.5798480045" lon="-1.8293380458"><ele>19.36</ele><time>2018-09-05T07:24:00Z</time></trkpt><trkpt lat="49.5800372679" lon="-1.8292434979"><ele>18.40</ele><time>2018-09-05T07:24:04Z</time></trkpt><trkpt lat="49.5802565385" lon="-1.8290980719"><ele>18.88</ele><time>2018-09-05T07:24:09Z</time></trkpt><trkpt lat="49.5805421099" lon="-1.8287673220"><ele>20.32</ele><time>2018-09-05T07:24:17Z</time></trkpt><trkpt lat="49.5809477102" lon="-1.8283980154"><ele>17.44</ele><time>2018-09-05T07:24:27Z</time></trkpt><trkpt lat="49.5811541565" lon="-1.8282867875"><ele>15.04</ele><time>2018-09-05T07:24:32Z</time></trkpt><trkpt lat="49.5811726805" lon="-1.8282582052"><ele>14.08</ele><time>2018-09-05T07:24:37Z</time></trkpt><trkpt lat="49.5810746122" lon="-1.8283032998"><ele>14.56</ele><time>2018-09-05T07:24:46Z</time></trkpt><trkpt lat="49.5810860116" lon="-1.8282842729"><ele>14.56</ele><time>2018-09-05T07:24:47Z</time></trkpt><trkpt lat="49.5811877679" lon="-1.8280513398"><ele>13.60</ele><time>2018-09-05T07:24:54Z</time></trkpt><trkpt lat="49.5812697429" lon="-1.8279474881"><ele>13.12</ele><time>2018-09-05T07:24:58Z</time></trkpt><trkpt lat="49.5814155880" lon="-1.8277470767"><ele>12.63</ele><time>2018-09-05T07:25:07Z</time></trkpt><trkpt lat="49.5815184340" lon="-1.8274703063"><ele>12.63</ele><time>2018-09-05T07:25:15Z</time></trkpt><trkpt lat="49.5817923546" lon="-1.8270722497"><ele>13.12</ele><time>2018-09-05T07:25:26Z</time></trkpt><trkpt lat="49.5819703024" lon="-1.8268852495"><ele>13.60</ele><time>2018-09-05T07:25:32Z</time></trkpt><trkpt lat="49.5821576379" lon="-1.8268057890"><ele>14.56</ele><time>2018-09-05T07:25:39Z</time></trkpt><trkpt lat="49.5825578738" lon="-1.8265597802"><ele>14.08</ele><time>2018-09-05T07:25:52Z</time></trkpt><trkpt lat="49.5825936645" lon="-1.8265724368"><ele>13.60</ele><time>2018-09-05T07:26:02Z</time></trkpt><trkpt lat="49.5826774836" lon="-1.8265135959"><ele>12.15</ele><time>2018-09-05T07:26:15Z</time></trkpt><trkpt lat="49.5828202274" lon="-1.8263524119"><ele>12.15</ele><time>2018-09-05T07:26:32Z</time></trkpt><trkpt lat="49.5829716884" lon="-1.8261621427"><ele>12.63</ele><time>2018-09-05T07:26:49Z</time></trkpt><trkpt lat="49.5830950700" lon="-1.8259944208"><ele>12.15</ele><time>2018-09-05T07:27:04Z</time></trkpt><trkpt lat="49.5831108280" lon="-1.8259883858"><ele>13.12</ele><time>2018-09-05T07:27:20Z</time></trkpt><trkpt lat="49.5831062179" lon="-1.8259915709"><ele>12.63</ele><time>2018-09-05T07:27:39Z</time></trkpt><trkpt lat="49.5831287652" lon="-1.8259631563"><ele>12.63</ele><time>2018-09-05T07:28:02Z</time></trkpt><trkpt lat="49.5832049567" lon="-1.8258703686"><ele>12.63</ele><time>2018-09-05T07:28:12Z</time></trkpt><trkpt lat="49.5832702518" lon="-1.8257669359"><ele>12.15</ele><time>2018-09-05T07:28:25Z</time></trkpt><trkpt lat="49.5834262390" lon="-1.8253963720"><ele>13.12</ele><time>2018-09-05T07:28:36Z</time></trkpt><trkpt lat="49.5836739242" lon="-1.8252077792"><ele>13.12</ele><time>2018-09-05T07:28:42Z</time></trkpt><trkpt lat="49.5837997366" lon="-1.8251023348"><ele>13.60</ele><time>2018-09-05T07:28:45Z</time></trkpt><trkpt lat="49.5844455622" lon="-1.8247134984"><ele>16.00</ele><time>2018-09-05T07:28:59Z</time></trkpt><trkpt lat="49.5845456421" lon="-1.8246649671"><ele>15.52</ele><time>2018-09-05T07:29:01Z</time></trkpt><trkpt lat="49.5848565269" lon="-1.8243380729"><ele>13.60</ele><time>2018-09-05T07:29:08Z</time></trkpt><trkpt lat="49.5855704136" lon="-1.8238982745"><ele>12.63</ele><time>2018-09-05T07:29:22Z</time></trkpt><trkpt lat="49.5858040173" lon="-1.8237134535"><ele>13.12</ele><time>2018-09-05T07:29:27Z</time></trkpt><trkpt lat="49.5859962143" lon="-1.8235846236"><ele>13.60</ele><time>2018-09-05T07:29:31Z</time></trkpt><trkpt lat="49.5861003175" lon="-1.8235361762"><ele>13.60</ele><time>2018-09-05T07:29:33Z</time></trkpt><trkpt lat="49.5863446500" lon="-1.8233781774"><ele>15.04</ele><time>2018-09-05T07:29:38Z</time></trkpt><trkpt lat="49.5865681954" lon="-1.8232620880"><ele>15.04</ele><time>2018-09-05T07:29:43Z</time></trkpt><trkpt lat="49.5869174693" lon="-1.8231314979"><ele>13.60</ele><time>2018-09-05T07:29:50Z</time></trkpt><trkpt lat="49.5872141048" lon="-1.8230899237"><ele>13.12</ele><time>2018-09-05T07:29:55Z</time></trkpt><trkpt lat="49.5873359777" lon="-1.8230777700"><ele>12.63</ele><time>2018-09-05T07:29:57Z</time></trkpt><trkpt lat="49.5876302663" lon="-1.8229655363"><ele>12.63</ele><time>2018-09-05T07:30:02Z</time></trkpt><trkpt lat="49.5878637861" lon="-1.8228488602"><ele>13.12</ele><time>2018-09-05T07:30:07Z</time></trkpt><trkpt lat="49.5881018322" lon="-1.8228077888"><ele>13.12</ele><time>2018-09-05T07:30:12Z</time></trkpt><trkpt lat="49.5883454103" lon="-1.8226971477"><ele>12.63</ele><time>2018-09-05T07:30:17Z</time></trkpt><trkpt lat="49.5885118749" lon="-1.8225741852"><ele>13.12</ele><time>2018-09-05T07:30:21Z</time></trkpt><trkpt lat="49.5887667686" lon="-1.8222494703"><ele>15.04</ele><time>2018-09-05T07:30:29Z</time></trkpt><trkpt lat="49.5888481569" lon="-1.8222029507"><ele>15.52</ele><time>2018-09-05T07:30:31Z</time></trkpt><trkpt lat="49.5891636517" lon="-1.8221493904"><ele>18.40</ele><time>2018-09-05T07:30:38Z</time></trkpt><trkpt lat="49.5895203855" lon="-1.8219058961"><ele>16.96</ele><time>2018-09-05T07:30:46Z</time></trkpt><trkpt lat="49.5896608662" lon="-1.8217376713"><ele>16.48</ele><time>2018-09-05T07:30:50Z</time></trkpt><trkpt lat="49.5900160912" lon="-1.8215536885"><ele>15.52</ele><time>2018-09-05T07:30:58Z</time></trkpt><trkpt lat="49.5907457359" lon="-1.8215202447"><ele>18.40</ele><time>2018-09-05T07:31:12Z</time></trkpt><trkpt lat="49.5908394456" lon="-1.8215120304"><ele>18.88</ele><time>2018-09-05T07:31:14Z</time></trkpt><trkpt lat="49.5909445547" lon="-1.8214901537"><ele>18.88</ele><time>2018-09-05T07:31:16Z</time></trkpt><trkpt lat="49.5910921600" lon="-1.8214744795"><ele>18.88</ele><time>2018-09-05T07:31:19Z</time></trkpt><trkpt lat="49.5913305413" lon="-1.8214152195"><ele>19.36</ele><time>2018-09-05T07:31:24Z</time></trkpt><trkpt lat="49.5914385002" lon="-1.8214014731"><ele>19.84</ele><time>2018-09-05T07:31:26Z</time></trkpt><trkpt lat="49.5917414222" lon="-1.8213238567"><ele>21.29</ele><time>2018-09-05T07:31:33Z</time></trkpt><trkpt lat="49.5918473694" lon="-1.8212613277"><ele>22.25</ele><time>2018-09-05T07:31:35Z</time></trkpt><trkpt lat="49.5920684002" lon="-1.8212003913"><ele>22.73</ele><time>2018-09-05T07:31:39Z</time></trkpt><trkpt lat="49.5924360305" lon="-1.8211897463"><ele>23.69</ele><time>2018-09-05T07:31:45Z</time></trkpt><trkpt lat="49.5928443130" lon="-1.8209133111"><ele>22.73</ele><time>2018-09-05T07:31:53Z</time></trkpt><trkpt lat="49.5931121986" lon="-1.8206543103"><ele>22.25</ele><time>2018-09-05T07:31:59Z</time></trkpt><trkpt lat="49.5936347265" lon="-1.8204684835"><ele>22.73</ele><time>2018-09-05T07:32:09Z</time></trkpt><trkpt lat="49.5940384828" lon="-1.8204044458"><ele>23.21</ele><time>2018-09-05T07:32:18Z</time></trkpt><trkpt lat="49.5945191849" lon="-1.8200506456"><ele>22.73</ele><time>2018-09-05T07:32:29Z</time></trkpt><trkpt lat="49.5951111149" lon="-1.8196631502"><ele>24.65</ele><time>2018-09-05T07:32:41Z</time></trkpt><trkpt lat="49.5954605564" lon="-1.8194014672"><ele>25.13</ele><time>2018-09-05T07:32:49Z</time></trkpt><trkpt lat="49.5955945831" lon="-1.8193205819"><ele>24.65</ele><time>2018-09-05T07:32:52Z</time></trkpt><trkpt lat="49.5958401728" lon="-1.8193466496"><ele>24.65</ele><time>2018-09-05T07:32:57Z</time></trkpt><trkpt lat="49.5961797237" lon="-1.8194434606"><ele>25.13</ele><time>2018-09-05T07:33:06Z</time></trkpt><trkpt lat="49.5962663088" lon="-1.8194314744"><ele>25.13</ele><time>2018-09-05T07:33:08Z</time></trkpt><trkpt lat="49.5966252219" lon="-1.8192925025"><ele>25.61</ele><time>2018-09-05T07:33:16Z</time></trkpt><trkpt lat="49.5971823670" lon="-1.8188242894"><ele>27.53</ele><time>2018-09-05T07:33:29Z</time></trkpt><trkpt lat="49.5973371807" lon="-1.8186310027"><ele>28.50</ele><time>2018-09-05T07:33:35Z</time></trkpt><trkpt lat="49.5973775815" lon="-1.8185175117"><ele>28.50</ele><time>2018-09-05T07:33:37Z</time></trkpt><trkpt lat="49.5974871330" lon="-1.8181653880"><ele>27.05</ele><time>2018-09-05T07:33:42Z</time></trkpt><trkpt lat="49.5975106861" lon="-1.8180426769"><ele>26.09</ele><time>2018-09-05T07:33:44Z</time></trkpt><trkpt lat="49.5976167172" lon="-1.8177390844"><ele>23.69</ele><time>2018-09-05T07:33:48Z</time></trkpt><trkpt lat="49.5980532467" lon="-1.8170605693"><ele>18.40</ele><time>2018-09-05T07:34:01Z</time></trkpt><trkpt lat="49.5980918873" lon="-1.8170373514"><ele>17.92</ele><time>2018-09-05T07:34:02Z</time></trkpt><trkpt lat="49.5983232278" lon="-1.8169872276"><ele>17.92</ele><time>2018-09-05T07:34:08Z</time></trkpt><trkpt lat="49.5985048637" lon="-1.8168117944"><ele>18.88</ele><time>2018-09-05T07:34:13Z</time></trkpt><trkpt lat="49.5988150779" lon="-1.8165063579"><ele>22.25</ele><time>2018-09-05T07:34:24Z</time></trkpt><trkpt lat="49.5989321731" lon="-1.8164771050"><ele>23.21</ele><time>2018-09-05T07:34:28Z</time></trkpt><trkpt lat="49.5989777707" lon="-1.8163850717"><ele>24.17</ele><time>2018-09-05T07:34:31Z</time></trkpt><trkpt lat="49.5991845522" lon="-1.8159037828"><ele>29.46</ele><time>2018-09-05T07:34:45Z</time></trkpt><trkpt lat="49.5993666071" lon="-1.8155774754"><ele>34.74</ele><time>2018-09-05T07:34:54Z</time></trkpt><trkpt lat="49.5994075108" lon="-1.8155176286"><ele>36.19</ele><time>2018-09-05T07:34:56Z</time></trkpt><trkpt lat="49.5996675175" lon="-1.8152286205"><ele>41.95</ele><time>2018-09-05T07:35:08Z</time></trkpt><trkpt lat="49.5999045577" lon="-1.8150932528"><ele>45.80</ele><time>2018-09-05T07:35:17Z</time></trkpt><trkpt lat="49.6002588607" lon="-1.8149050791"><ele>48.20</ele><time>2018-09-05T07:35:30Z</time></trkpt><trkpt lat="49.6005857550" lon="-1.8147521932"><ele>49.65</ele><time>2018-09-05T07:35:41Z</time></trkpt><trkpt lat="49.6008900180" lon="-1.8143230397"><ele>49.16</ele><time>2018-09-05T07:35:51Z</time></trkpt><trkpt lat="49.6011187602" lon="-1.8137484603"><ele>48.20</ele><time>2018-09-05T07:35:59Z</time></trkpt><trkpt lat="49.6011343505" lon="-1.8136818241"><ele>47.72</ele><time>2018-09-05T07:36:00Z</time></trkpt><trkpt lat="49.6011563949" lon="-1.8135369848"><ele>47.72</ele><time>2018-09-05T07:36:02Z</time></trkpt><trkpt lat="49.6013582312" lon="-1.8133165408"><ele>47.24</ele><time>2018-09-05T07:36:07Z</time></trkpt><trkpt lat="49.6016702056" lon="-1.8134203926"><ele>47.24</ele><time>2018-09-05T07:36:14Z</time></trkpt><trkpt lat="49.6018453874" lon="-1.8135587778"><ele>47.72</ele><time>2018-09-05T07:36:18Z</time></trkpt><trkpt lat="49.6020274423" lon="-1.8138043676"><ele>47.72</ele><time>2018-09-05T07:36:23Z</time></trkpt><trkpt lat="49.6023266762" lon="-1.8141718302"><ele>47.24</ele><time>2018-09-05T07:36:32Z</time></trkpt><trkpt lat="49.6023864392" lon="-1.8144035060"><ele>48.20</ele><time>2018-09-05T07:36:36Z</time></trkpt><trkpt lat="49.6024754550" lon="-1.8149500899"><ele>51.57</ele><time>2018-09-05T07:36:44Z</time></trkpt><trkpt lat="49.6025753673" lon="-1.8153177202"><ele>54.45</ele><time>2018-09-05T07:36:50Z</time></trkpt><trkpt lat="49.6027058735" lon="-1.8157151062"><ele>59.26</ele><time>2018-09-05T07:36:57Z</time></trkpt><trkpt lat="49.6030283254" lon="-1.8162731733"><ele>68.39</ele><time>2018-09-05T07:37:10Z</time></trkpt><trkpt lat="49.6032001544" lon="-1.8166156579"><ele>74.64</ele><time>2018-09-05T07:37:19Z</time></trkpt><trkpt lat="49.6032082010" lon="-1.8167130556"><ele>74.16</ele><time>2018-09-05T07:37:22Z</time></trkpt><trkpt lat="49.6032976359" lon="-1.8167430628"><ele>70.79</ele><time>2018-09-05T07:37:26Z</time></trkpt><trkpt lat="49.6035788488" lon="-1.8167745788"><ele>66.95</ele><time>2018-09-05T07:37:35Z</time></trkpt><trkpt lat="49.6039427072" lon="-1.8167560548"><ele>63.10</ele><time>2018-09-05T07:37:46Z</time></trkpt><trkpt lat="49.6042416058" lon="-1.8166760076"><ele>61.18</ele><time>2018-09-05T07:37:55Z</time></trkpt><trkpt lat="49.6042874549" lon="-1.8167036679"><ele>61.18</ele><time>2018-09-05T07:37:58Z</time></trkpt><trkpt lat="49.6044585295" lon="-1.8166226987"><ele>60.70</ele><time>2018-09-05T07:38:05Z</time></trkpt><trkpt lat="49.6046128403" lon="-1.8165429868"><ele>60.22</ele><time>2018-09-05T07:38:11Z</time></trkpt><trkpt lat="49.6048671473" lon="-1.8162759393"><ele>60.22</ele><time>2018-09-05T07:38:20Z</time></trkpt><trkpt lat="49.6050347015" lon="-1.8157172855"><ele>59.74</ele><time>2018-09-05T07:38:31Z</time></trkpt><trkpt lat="49.6050395630" lon="-1.8156886194"><ele>59.26</ele><time>2018-09-05T07:38:32Z</time></trkpt><trkpt lat="49.6051878389" lon="-1.8154188897"><ele>59.26</ele><time>2018-09-05T07:38:40Z</time></trkpt><trkpt lat="49.6052792855" lon="-1.8153438717"><ele>61.66</ele><time>2018-09-05T07:38:43Z</time></trkpt><trkpt lat="49.6052626055" lon="-1.8154343963"><ele>61.18</ele><time>2018-09-05T07:38:48Z</time></trkpt><trkpt lat="49.6053020004" lon="-1.8155255076"><ele>63.58</ele><time>2018-09-05T07:38:52Z</time></trkpt><trkpt lat="49.6053053532" lon="-1.8156638090"><ele>65.51</ele><time>2018-09-05T07:38:56Z</time></trkpt><trkpt lat="49.6052455902" lon="-1.8160195369"><ele>71.27</ele><time>2018-09-05T07:39:08Z</time></trkpt><trkpt lat="49.6052392200" lon="-1.8160519749"><ele>71.76</ele><time>2018-09-05T07:39:09Z</time></trkpt><trkpt lat="49.6051859111" lon="-1.8162230495"><ele>74.16</ele><time>2018-09-05T07:39:16Z</time></trkpt><trkpt lat="49.6051760204" lon="-1.8162734248"><ele>73.68</ele><time>2018-09-05T07:39:18Z</time></trkpt><trkpt lat="49.6051470190" lon="-1.8163248897"><ele>73.68</ele><time>2018-09-05T07:39:20Z</time></trkpt><trkpt lat="49.6050474420" lon="-1.8166263867"><ele>73.68</ele><time>2018-09-05T07:39:29Z</time></trkpt><trkpt lat="49.6050262358" lon="-1.8167281430"><ele>74.16</ele><time>2018-09-05T07:39:33Z</time></trkpt><trkpt lat="49.6048529819" lon="-1.8170825299"><ele>76.56</ele><time>2018-09-05T07:39:45Z</time></trkpt><trkpt lat="49.6046239045" lon="-1.8175380863"><ele>83.29</ele><time>2018-09-05T07:39:58Z</time></trkpt><trkpt lat="49.6045333799" lon="-1.8180041201"><ele>85.69</ele><time>2018-09-05T07:40:10Z</time></trkpt><trkpt lat="49.6044934820" lon="-1.8185797893"><ele>89.54</ele><time>2018-09-05T07:40:24Z</time></trkpt><trkpt lat="49.6044868603" lon="-1.8191085197"><ele>92.42</ele><time>2018-09-05T07:40:38Z</time></trkpt><trkpt lat="49.6044963319" lon="-1.8195059896"><ele>93.87</ele><time>2018-09-05T07:40:49Z</time></trkpt><trkpt lat="49.6045576874" lon="-1.8198385835"><ele>95.31</ele><time>2018-09-05T07:41:00Z</time></trkpt><trkpt lat="49.6045836713" lon="-1.8199870270"><ele>96.27</ele><time>2018-09-05T07:41:05Z</time></trkpt><trkpt lat="49.6046900377" lon="-1.8203504663"><ele>99.63</ele><time>2018-09-05T07:41:18Z</time></trkpt><trkpt lat="49.6049218811" lon="-1.8209554721"><ele>101.56</ele><time>2018-09-05T07:41:32Z</time></trkpt><trkpt lat="49.6051981486" lon="-1.8216721248"><ele>102.04</ele><time>2018-09-05T07:41:46Z</time></trkpt><trkpt lat="49.6055877395" lon="-1.8224228080"><ele>104.44</ele><time>2018-09-05T07:42:02Z</time></trkpt><trkpt lat="49.6059551183" lon="-1.8226896040"><ele>107.32</ele><time>2018-09-05T07:42:15Z</time></trkpt><trkpt lat="49.6063085832" lon="-1.8229262251"><ele>109.73</ele><time>2018-09-05T07:42:26Z</time></trkpt><trkpt lat="49.6067501418" lon="-1.8231817894"><ele>111.17</ele><time>2018-09-05T07:42:38Z</time></trkpt><trkpt lat="49.6070932969" lon="-1.8234081008"><ele>110.69</ele><time>2018-09-05T07:42:47Z</time></trkpt><trkpt lat="49.6073877532" lon="-1.8239177205"><ele>110.21</ele><time>2018-09-05T07:42:56Z</time></trkpt><trkpt lat="49.6075624321" lon="-1.8240917288"><ele>110.21</ele><time>2018-09-05T07:43:00Z</time></trkpt><trkpt lat="49.6076711453" lon="-1.8241129350"><ele>108.77</ele><time>2018-09-05T07:43:02Z</time></trkpt><trkpt lat="49.6077834629" lon="-1.8241491448"><ele>107.81</ele><time>2018-09-05T07:43:04Z</time></trkpt><trkpt lat="49.6080103610" lon="-1.8242120091"><ele>106.84</ele><time>2018-09-05T07:43:08Z</time></trkpt><trkpt lat="49.6083737165" lon="-1.8242723588"><ele>104.92</ele><time>2018-09-05T07:43:20Z</time></trkpt><trkpt lat="49.6087789815" lon="-1.8241866119"><ele>103.00</ele><time>2018-09-05T07:43:28Z</time></trkpt><trkpt lat="49.6089501400" lon="-1.8240731210"><ele>102.52</ele><time>2018-09-05T07:43:31Z</time></trkpt><trkpt lat="49.6092988271" lon="-1.8237203266"><ele>102.04</ele><time>2018-09-05T07:43:39Z</time></trkpt><trkpt lat="49.6097674593" lon="-1.8232709728"><ele>105.40</ele><time>2018-09-05T07:43:52Z</time></trkpt><trkpt lat="49.6098663658" lon="-1.8231966253"><ele>106.36</ele><time>2018-09-05T07:43:55Z</time></trkpt><trkpt lat="49.6103769075" lon="-1.8231075257"><ele>105.40</ele><time>2018-09-05T07:44:06Z</time></trkpt><trkpt lat="49.6105006244" lon="-1.8230771832"><ele>104.92</ele><time>2018-09-05T07:44:09Z</time></trkpt><trkpt lat="49.6105443779" lon="-1.8232084438"><ele>102.52</ele><time>2018-09-05T07:44:14Z</time></trkpt><trkpt lat="49.6104803402" lon="-1.8232683744"><ele>101.56</ele><time>2018-09-05T07:44:16Z</time></trkpt><trkpt lat="49.6101833694" lon="-1.8238044810"><ele>96.75</ele><time>2018-09-05T07:44:25Z</time></trkpt><trkpt lat="49.6100524440" lon="-1.8240324687"><ele>96.75</ele><time>2018-09-05T07:44:30Z</time></trkpt><trkpt lat="49.6099090297" lon="-1.8241891265"><ele>96.27</ele><time>2018-09-05T07:44:34Z</time></trkpt><trkpt lat="49.6096478496" lon="-1.8244262505"><ele>96.75</ele><time>2018-09-05T07:44:40Z</time></trkpt><trkpt lat="49.6095626894" lon="-1.8244988378"><ele>96.75</ele><time>2018-09-05T07:44:42Z</time></trkpt><trkpt lat="49.6092955582" lon="-1.8250374589"><ele>97.71</ele><time>2018-09-05T07:44:52Z</time></trkpt><trkpt lat="49.6092149243" lon="-1.8252435699"><ele>98.19</ele><time>2018-09-05T07:44:57Z</time></trkpt><trkpt lat="49.6087666601" lon="-1.8257357553"><ele>100.11</ele><time>2018-09-05T07:45:07Z</time></trkpt><trkpt lat="49.6085718647" lon="-1.8258331530"><ele>99.15</ele><time>2018-09-05T07:45:15Z</time></trkpt><trkpt lat="49.6085496526" lon="-1.8258554488"><ele>100.11</ele><time>2018-09-05T07:45:26Z</time></trkpt><trkpt lat="49.6084977686" lon="-1.8258941732"><ele>100.60</ele><time>2018-09-05T07:45:37Z</time></trkpt><trkpt lat="49.6084428672" lon="-1.8259297963"><ele>99.63</ele><time>2018-09-05T07:45:39Z</time></trkpt><trkpt lat="49.6083171386" lon="-1.8264359795"><ele>99.15</ele><time>2018-09-05T07:45:49Z</time></trkpt><trkpt lat="49.6083074994" lon="-1.8266600277"><ele>97.71</ele><time>2018-09-05T07:45:58Z</time></trkpt><trkpt lat="49.6083085053" lon="-1.8266781326"><ele>97.71</ele><time>2018-09-05T07:45:59Z</time></trkpt><trkpt lat="49.6083069127" lon="-1.8268750235"><ele>96.75</ele><time>2018-09-05T07:46:09Z</time></trkpt><trkpt lat="49.6083221678" lon="-1.8273159117"><ele>96.27</ele><time>2018-09-05T07:46:20Z</time></trkpt><trkpt lat="49.6083014645" lon="-1.8273467571"><ele>98.19</ele><time>2018-09-05T07:46:32Z</time></trkpt><trkpt lat="49.6082985308" lon="-1.8273513671"><ele>100.11</ele><time>2018-09-05T07:47:01Z</time></trkpt><trkpt lat="49.6082945913" lon="-1.8273698911"><ele>102.04</ele><time>2018-09-05T07:47:34Z</time></trkpt><trkpt lat="49.6082901489" lon="-1.8273711484"><ele>103.48</ele><time>2018-09-05T07:48:09Z</time></trkpt><trkpt lat="49.6082955133" lon="-1.8273754232"><ele>103.96</ele><time>2018-09-05T07:48:35Z</time></trkpt><trkpt lat="49.6082955971" lon="-1.8273734115"><ele>104.44</ele><time>2018-09-05T07:48:57Z</time></trkpt><trkpt lat="49.6082966030" lon="-1.8273777701"><ele>104.44</ele><time>2018-09-05T07:49:18Z</time></trkpt><trkpt lat="49.6083002910" lon="-1.8273841403"><ele>103.96</ele><time>2018-09-05T07:49:37Z</time></trkpt><trkpt lat="49.6083226707" lon="-1.8276684545"><ele>104.44</ele><time>2018-09-05T07:49:48Z</time></trkpt><trkpt lat="49.6083187312" lon="-1.8280006293"><ele>102.52</ele><time>2018-09-05T07:49:57Z</time></trkpt><trkpt lat="49.6082223393" lon="-1.8287514802"><ele>102.52</ele><time>2018-09-05T07:50:09Z</time></trkpt><trkpt lat="49.6082157176" lon="-1.8288224749"><ele>102.52</ele><time>2018-09-05T07:50:10Z</time></trkpt><trkpt lat="49.6082033124" lon="-1.8294881657"><ele>103.96</ele><time>2018-09-05T07:50:20Z</time></trkpt><trkpt lat="49.6084810887" lon="-1.8296721485"><ele>106.84</ele><time>2018-09-05T07:50:29Z</time></trkpt><trkpt lat="49.6088425163" lon="-1.8298497610"><ele>104.92</ele><time>2018-09-05T07:50:37Z</time></trkpt><trkpt lat="49.6089254972" lon="-1.8298909161"><ele>104.44</ele><time>2018-09-05T07:50:39Z</time></trkpt><trkpt lat="49.6092502121" lon="-1.8300876394"><ele>102.52</ele><time>2018-09-05T07:50:46Z</time></trkpt><trkpt lat="49.6096325107" lon="-1.8302931637"><ele>102.04</ele><time>2018-09-05T07:50:54Z</time></trkpt><trkpt lat="49.6099767555" lon="-1.8304810021"><ele>103.96</ele><time>2018-09-05T07:51:03Z</time></trkpt><trkpt lat="49.6100689564" lon="-1.8304985203"><ele>103.96</ele><time>2018-09-05T07:51:05Z</time></trkpt><trkpt lat="49.6105259378" lon="-1.8303974345"><ele>104.44</ele><time>2018-09-05T07:51:17Z</time></trkpt><trkpt lat="49.6109655686" lon="-1.8302398548"><ele>104.92</ele><time>2018-09-05T07:51:30Z</time></trkpt><trkpt lat="49.6112548281" lon="-1.8300800119"><ele>104.92</ele><time>2018-09-05T07:51:40Z</time></trkpt><trkpt lat="49.6112727653" lon="-1.8300550338"><ele>105.40</ele><time>2018-09-05T07:51:50Z</time></trkpt><trkpt lat="49.6112692449" lon="-1.8300711270"><ele>105.40</ele><time>2018-09-05T07:52:13Z</time></trkpt><trkpt lat="49.6112684906" lon="-1.8300673552"><ele>105.88</ele><time>2018-09-05T07:52:33Z</time></trkpt><trkpt lat="49.6112767048" lon="-1.8300698698"><ele>105.88</ele><time>2018-09-05T07:52:46Z</time></trkpt><trkpt lat="49.6114058699" lon="-1.8299910799"><ele>106.84</ele><time>2018-09-05T07:53:03Z</time></trkpt><trkpt lat="49.6115094703" lon="-1.8299894035"><ele>107.81</ele><time>2018-09-05T07:53:18Z</time></trkpt><trkpt lat="49.6115111466" lon="-1.8299898226"><ele>108.29</ele><time>2018-09-05T07:53:35Z</time></trkpt><trkpt lat="49.6115138289" lon="-1.8299940135"><ele>108.29</ele><time>2018-09-05T07:53:49Z</time></trkpt><trkpt lat="49.6115644556" lon="-1.8299350049"><ele>108.29</ele><time>2018-09-05T07:53:53Z</time></trkpt><trkpt lat="49.6115733404" lon="-1.8295879103"><ele>111.17</ele><time>2018-09-05T07:54:05Z</time></trkpt><trkpt lat="49.6115961391" lon="-1.8291837350"><ele>115.01</ele><time>2018-09-05T07:54:17Z</time></trkpt><trkpt lat="49.6116253920" lon="-1.8286220636"><ele>116.46</ele><time>2018-09-05T07:54:29Z</time></trkpt><trkpt lat="49.6116779465" lon="-1.8279172294"><ele>118.86</ele><time>2018-09-05T07:54:43Z</time></trkpt><trkpt lat="49.6116954647" lon="-1.8276850507"><ele>118.86</ele><time>2018-09-05T07:54:48Z</time></trkpt><trkpt lat="49.6119238716" lon="-1.8274782691"><ele>120.30</ele><time>2018-09-05T07:54:56Z</time></trkpt><trkpt lat="49.6119977999" lon="-1.8272234593"><ele>120.78</ele><time>2018-09-05T07:55:01Z</time></trkpt><trkpt lat="49.6122280508" lon="-1.8266596086"><ele>123.19</ele><time>2018-09-05T07:55:12Z</time></trkpt><trkpt lat="49.6125398576" lon="-1.8261262681"><ele>127.03</ele><time>2018-09-05T07:55:23Z</time></trkpt><trkpt lat="49.6126917377" lon="-1.8258696981"><ele>127.51</ele><time>2018-09-05T07:55:28Z</time></trkpt><trkpt lat="49.6127774008" lon="-1.8256510980"><ele>127.51</ele><time>2018-09-05T07:55:32Z</time></trkpt><trkpt lat="49.6128328051" lon="-1.8254757486"><ele>128.47</ele><time>2018-09-05T07:55:35Z</time></trkpt><trkpt lat="49.6130384970" lon="-1.8248369638"><ele>127.99</ele><time>2018-09-05T07:55:46Z</time></trkpt><trkpt lat="49.6131650638" lon="-1.8244009372"><ele>127.03</ele><time>2018-09-05T07:55:53Z</time></trkpt><trkpt lat="49.6132858470" lon="-1.8239373341"><ele>127.03</ele><time>2018-09-05T07:56:01Z</time></trkpt><trkpt lat="49.6133015212" lon="-1.8237795867"><ele>127.51</ele><time>2018-09-05T07:56:09Z</time></trkpt><trkpt lat="49.6133102383" lon="-1.8237854540"><ele>127.99</ele><time>2018-09-05T07:56:31Z</time></trkpt><trkpt lat="49.6133146808" lon="-1.8237882201"><ele>127.51</ele><time>2018-09-05T07:56:59Z</time></trkpt><trkpt lat="49.6133034490" lon="-1.8237403594"><ele>127.51</ele><time>2018-09-05T07:57:01Z</time></trkpt><trkpt lat="49.6133334562" lon="-1.8236616533"><ele>127.99</ele><time>2018-09-05T07:57:06Z</time></trkpt><trkpt lat="49.6133254934" lon="-1.8236649223"><ele>127.99</ele><time>2018-09-05T07:57:30Z</time></trkpt><trkpt lat="49.6133252420" lon="-1.8237735517"><ele>127.03</ele><time>2018-09-05T07:57:39Z</time></trkpt><trkpt lat="49.6133186202" lon="-1.8238049839"><ele>126.07</ele><time>2018-09-05T07:57:50Z</time></trkpt><trkpt lat="49.6133173630" lon="-1.8238235079"><ele>126.07</ele><time>2018-09-05T07:58:17Z</time></trkpt><trkpt lat="49.6133104898" lon="-1.8238126952"><ele>124.63</ele><time>2018-09-05T07:58:36Z</time></trkpt><trkpt lat="49.6133091487" lon="-1.8238048162"><ele>124.15</ele><time>2018-09-05T07:58:56Z</time></trkpt><trkpt lat="49.6133128367" lon="-1.8238195684"><ele>124.63</ele><time>2018-09-05T07:58:58Z</time></trkpt><trkpt lat="49.6133319475" lon="-1.8238738831"><ele>125.11</ele><time>2018-09-05T07:59:01Z</time></trkpt><trkpt lat="49.6132736094" lon="-1.8239868712"><ele>125.11</ele><time>2018-09-05T07:59:06Z</time></trkpt><trkpt lat="49.6131037083" lon="-1.8247504625"><ele>125.59</ele><time>2018-09-05T07:59:20Z</time></trkpt><trkpt lat="49.6130505670" lon="-1.8249528017"><ele>126.07</ele><time>2018-09-05T07:59:23Z</time></trkpt><trkpt lat="49.6127701923" lon="-1.8257764913"><ele>127.51</ele><time>2018-09-05T07:59:34Z</time></trkpt><trkpt lat="49.6121080220" lon="-1.8269872572"><ele>123.67</ele><time>2018-09-05T07:59:50Z</time></trkpt><trkpt lat="49.6119289845" lon="-1.8274953682"><ele>122.71</ele><time>2018-09-05T07:59:56Z</time></trkpt><trkpt lat="49.6116843168" lon="-1.8277129624"><ele>121.26</ele><time>2018-09-05T08:00:03Z</time></trkpt><trkpt lat="49.6116671339" lon="-1.8278857134"><ele>120.30</ele><time>2018-09-05T08:00:06Z</time></trkpt><trkpt lat="49.6116762701" lon="-1.8279534392"><ele>119.82</ele><time>2018-09-05T08:00:08Z</time></trkpt><trkpt lat="49.6116280742" lon="-1.8285234086"><ele>118.38</ele><time>2018-09-05T08:00:17Z</time></trkpt><trkpt lat="49.6116162557" lon="-1.8288005982"><ele>117.42</ele><time>2018-09-05T08:00:21Z</time></trkpt><trkpt lat="49.6115912776" lon="-1.8293957971"><ele>115.01</ele><time>2018-09-05T08:00:29Z</time></trkpt><trkpt lat="49.6115554869" lon="-1.8298132997"><ele>112.13</ele><time>2018-09-05T08:00:34Z</time></trkpt><trkpt lat="49.6113750245" lon="-1.8299913313"><ele>108.77</ele><time>2018-09-05T08:00:42Z</time></trkpt><trkpt lat="49.6110447776" lon="-1.8302044831"><ele>105.88</ele><time>2018-09-05T08:00:52Z</time></trkpt><trkpt lat="49.6107824240" lon="-1.8303405214"><ele>104.92</ele><time>2018-09-05T08:00:57Z</time></trkpt><trkpt lat="49.6106357407" lon="-1.8303747196"><ele>104.92</ele><time>2018-09-05T08:01:00Z</time></trkpt><trkpt lat="49.6104271151" lon="-1.8304323871"><ele>104.92</ele><time>2018-09-05T08:01:04Z</time></trkpt><trkpt lat="49.6102671046" lon="-1.8304818403"><ele>104.44</ele><time>2018-09-05T08:01:07Z</time></trkpt><trkpt lat="49.6099297330" lon="-1.8304675072"><ele>104.92</ele><time>2018-09-05T08:01:14Z</time></trkpt><trkpt lat="49.6095112246" lon="-1.8302374240"><ele>103.00</ele><time>2018-09-05T08:01:22Z</time></trkpt><trkpt lat="49.6090336237" lon="-1.8299350049"><ele>100.60</ele><time>2018-09-05T08:01:32Z</time></trkpt><trkpt lat="49.6089532413" lon="-1.8298781756"><ele>100.60</ele><time>2018-09-05T08:01:34Z</time></trkpt><trkpt lat="49.6085727867" lon="-1.8296852242"><ele>101.08</ele><time>2018-09-05T08:01:43Z</time></trkpt><trkpt lat="49.6084339824" lon="-1.8296242040"><ele>102.04</ele><time>2018-09-05T08:01:46Z</time></trkpt><trkpt lat="49.6082873829" lon="-1.8295801152"><ele>102.04</ele><time>2018-09-05T08:01:49Z</time></trkpt><trkpt lat="49.6082009654" lon="-1.8294109683"><ele>101.56</ele><time>2018-09-05T08:01:53Z</time></trkpt><trkpt lat="49.6082185674" lon="-1.8287468702"><ele>101.56</ele><time>2018-09-05T08:02:03Z</time></trkpt><trkpt lat="49.6082415339" lon="-1.8284815829"><ele>102.52</ele><time>2018-09-05T08:02:07Z</time></trkpt><trkpt lat="49.6082929149" lon="-1.8279215042"><ele>102.04</ele><time>2018-09-05T08:02:15Z</time></trkpt><trkpt lat="49.6083008777" lon="-1.8272236269"><ele>99.15</ele><time>2018-09-05T08:02:23Z</time></trkpt><trkpt lat="49.6082859579" lon="-1.8269300088"><ele>98.67</ele><time>2018-09-05T08:02:26Z</time></trkpt><trkpt lat="49.6082948428" lon="-1.8266451918"><ele>98.19</ele><time>2018-09-05T08:02:29Z</time></trkpt><trkpt lat="49.6083374228" lon="-1.8261409365"><ele>97.23</ele><time>2018-09-05T08:02:35Z</time></trkpt><trkpt lat="49.6085163765" lon="-1.8259183969"><ele>98.67</ele><time>2018-09-05T08:02:43Z</time></trkpt><trkpt lat="49.6085353196" lon="-1.8258982804"><ele>98.67</ele><time>2018-09-05T08:02:57Z</time></trkpt><trkpt lat="49.6086307894" lon="-1.8258449715"><ele>100.11</ele><time>2018-09-05T08:03:10Z</time></trkpt><trkpt lat="49.6086897980" lon="-1.8258109409"><ele>100.60</ele><time>2018-09-05T08:03:21Z</time></trkpt><trkpt lat="49.6088583581" lon="-1.8256571330"><ele>102.52</ele><time>2018-09-05T08:03:33Z</time></trkpt><trkpt lat="49.6091092285" lon="-1.8253484275"><ele>103.00</ele><time>2018-09-05T08:03:42Z</time></trkpt><trkpt lat="49.6091762837" lon="-1.8251697253"><ele>103.96</ele><time>2018-09-05T08:03:46Z</time></trkpt><trkpt lat="49.6094030980" lon="-1.8247159291"><ele>103.96</ele><time>2018-09-05T08:03:52Z</time></trkpt><trkpt lat="49.6097216103" lon="-1.8243211415"><ele>103.00</ele><time>2018-09-05T08:03:58Z</time></trkpt><trkpt lat="49.6099633444" lon="-1.8240820058"><ele>101.56</ele><time>2018-09-05T08:04:02Z</time></trkpt><trkpt lat="49.6103463974" lon="-1.8235366791"><ele>100.11</ele><time>2018-09-05T08:04:11Z</time></trkpt><trkpt lat="49.6104394365" lon="-1.8232915085"><ele>100.11</ele><time>2018-09-05T08:04:15Z</time></trkpt><trkpt lat="49.6105331462" lon="-1.8231687136"><ele>101.56</ele><time>2018-09-05T08:04:18Z</time></trkpt><trkpt lat="49.6104140393" lon="-1.8231019937"><ele>102.52</ele><time>2018-09-05T08:04:25Z</time></trkpt><trkpt lat="49.6100230236" lon="-1.8231651094"><ele>103.96</ele><time>2018-09-05T08:04:37Z</time></trkpt><trkpt lat="49.6095496137" lon="-1.8235210888"><ele>103.96</ele><time>2018-09-05T08:04:49Z</time></trkpt><trkpt lat="49.6093699057" lon="-1.8236698676"><ele>103.00</ele><time>2018-09-05T08:04:52Z</time></trkpt><trkpt lat="49.6086959168" lon="-1.8242437765"><ele>103.96</ele><time>2018-09-05T08:05:04Z</time></trkpt><trkpt lat="49.6079419646" lon="-1.8242167868"><ele>108.29</ele><time>2018-09-05T08:05:18Z</time></trkpt><trkpt lat="49.6077388711" lon="-1.8241616338"><ele>108.77</ele><time>2018-09-05T08:05:22Z</time></trkpt><trkpt lat="49.6075892542" lon="-1.8241177965"><ele>109.25</ele><time>2018-09-05T08:05:25Z</time></trkpt><trkpt lat="49.6073925309" lon="-1.8239229172"><ele>109.25</ele><time>2018-09-05T08:05:30Z</time></trkpt><trkpt lat="49.6072134096" lon="-1.8235842884"><ele>110.69</ele><time>2018-09-05T08:05:36Z</time></trkpt><trkpt lat="49.6071112342" lon="-1.8234449811"><ele>110.69</ele><time>2018-09-05T08:05:39Z</time></trkpt><trkpt lat="49.6070321091" lon="-1.8233707175"><ele>111.17</ele><time>2018-09-05T08:05:41Z</time></trkpt><trkpt lat="49.6062613092" lon="-1.8229258899"><ele>115.01</ele><time>2018-09-05T08:05:56Z</time></trkpt><trkpt lat="49.6057267953" lon="-1.8225737661"><ele>113.57</ele><time>2018-09-05T08:06:05Z</time></trkpt><trkpt lat="49.6055687964" lon="-1.8224566709"><ele>112.61</ele><time>2018-09-05T08:06:08Z</time></trkpt><trkpt lat="49.6051372960" lon="-1.8216530979"><ele>110.21</ele><time>2018-09-05T08:06:18Z</time></trkpt><trkpt lat="49.6047363058" lon="-1.8205720000"><ele>108.29</ele><time>2018-09-05T08:06:31Z</time></trkpt><trkpt lat="49.6044882853" lon="-1.8197280262"><ele>103.96</ele><time>2018-09-05T08:06:40Z</time></trkpt><trkpt lat="49.6044623852" lon="-1.8195399363"><ele>102.52</ele><time>2018-09-05T08:06:42Z</time></trkpt><trkpt lat="49.6044940688" lon="-1.8180539086"><ele>92.90</ele><time>2018-09-05T08:06:54Z</time></trkpt><trkpt lat="49.6045260876" lon="-1.8178141024"><ele>91.46</ele><time>2018-09-05T08:06:56Z</time></trkpt><trkpt lat="49.6046272572" lon="-1.8174333964"><ele>89.06</ele><time>2018-09-05T08:07:00Z</time></trkpt><trkpt lat="49.6049076319" lon="-1.8169480003"><ele>85.21</ele><time>2018-09-05T08:07:06Z</time></trkpt><trkpt lat="49.6050167643" lon="-1.8166719843"><ele>83.29</ele><time>2018-09-05T08:07:09Z</time></trkpt><trkpt lat="49.6050914470" lon="-1.8163963035"><ele>81.85</ele><time>2018-09-05T08:07:12Z</time></trkpt><trkpt lat="49.6053760126" lon="-1.8154334743"><ele>76.56</ele><time>2018-09-05T08:07:22Z</time></trkpt><trkpt lat="49.6053883340" lon="-1.8153810035"><ele>75.60</ele><time>2018-09-05T08:07:23Z</time></trkpt><trkpt lat="49.6052938700" lon="-1.8154576141"><ele>70.79</ele><time>2018-09-05T08:07:31Z</time></trkpt><trkpt lat="49.6052707359" lon="-1.8155211490"><ele>69.83</ele><time>2018-09-05T08:07:32Z</time></trkpt><trkpt lat="49.6050292533" lon="-1.8162269052"><ele>63.10</ele><time>2018-09-05T08:07:42Z</time></trkpt><trkpt lat="49.6048401576" lon="-1.8164460082"><ele>63.58</ele><time>2018-09-05T08:07:46Z</time></trkpt><trkpt lat="49.6047262475" lon="-1.8165315036"><ele>63.58</ele><time>2018-09-05T08:07:48Z</time></trkpt><trkpt lat="49.6045945678" lon="-1.8165910151"><ele>63.58</ele><time>2018-09-05T08:07:50Z</time></trkpt><trkpt lat="49.6037402004" lon="-1.8167831283"><ele>60.70</ele><time>2018-09-05T08:08:01Z</time></trkpt><trkpt lat="49.6032740828" lon="-1.8168171588"><ele>58.30</ele><time>2018-09-05T08:08:08Z</time></trkpt><trkpt lat="49.6030230448" lon="-1.8163426593"><ele>55.41</ele><time>2018-09-05T08:08:17Z</time></trkpt><trkpt lat="49.6028663032" lon="-1.8161122408"><ele>53.97</ele><time>2018-09-05T08:08:20Z</time></trkpt><trkpt lat="49.6027012635" lon="-1.8157730252"><ele>53.97</ele><time>2018-09-05T08:08:24Z</time></trkpt><trkpt lat="49.6024421789" lon="-1.8151028920"><ele>53.01</ele><time>2018-09-05T08:08:31Z</time></trkpt><trkpt lat="49.6023377404" lon="-1.8147030752"><ele>53.49</ele><time>2018-09-05T08:08:35Z</time></trkpt><trkpt lat="49.6023066435" lon="-1.8145089503"><ele>53.97</ele><time>2018-09-05T08:08:37Z</time></trkpt><trkpt lat="49.6022961661" lon="-1.8143427372"><ele>54.45</ele><time>2018-09-05T08:08:39Z</time></trkpt><trkpt lat="49.6021986008" lon="-1.8140526395"><ele>53.97</ele><time>2018-09-05T08:08:44Z</time></trkpt><trkpt lat="49.6017658431" lon="-1.8134180456"><ele>52.53</ele><time>2018-09-05T08:08:54Z</time></trkpt><trkpt lat="49.6015353408" lon="-1.8133044709"><ele>52.05</ele><time>2018-09-05T08:08:58Z</time></trkpt><trkpt lat="49.6012419742" lon="-1.8134653196"><ele>50.61</ele><time>2018-09-05T08:09:05Z</time></trkpt><trkpt lat="49.6012003161" lon="-1.8137254938"><ele>49.65</ele><time>2018-09-05T08:09:08Z</time></trkpt><trkpt lat="49.6010729112" lon="-1.8141311780"><ele>49.16</ele><time>2018-09-05T08:09:14Z</time></trkpt><trkpt lat="49.6009283233" lon="-1.8143509515"><ele>49.65</ele><time>2018-09-05T08:09:18Z</time></trkpt><trkpt lat="49.6007589251" lon="-1.8146149814"><ele>50.13</ele><time>2018-09-05T08:09:23Z</time></trkpt><trkpt lat="49.6001612954" lon="-1.8150049075"><ele>49.16</ele><time>2018-09-05T08:09:34Z</time></trkpt><trkpt lat="49.5999824256" lon="-1.8151010480"><ele>48.68</ele><time>2018-09-05T08:09:38Z</time></trkpt><trkpt lat="49.5997451339" lon="-1.8152327277"><ele>47.24</ele><time>2018-09-05T08:09:43Z</time></trkpt><trkpt lat="49.5994821936" lon="-1.8155479711"><ele>45.80</ele><time>2018-09-05T08:09:48Z</time></trkpt><trkpt lat="49.5990946982" lon="-1.8163154181"><ele>40.51</ele><time>2018-09-05T08:09:57Z</time></trkpt><trkpt lat="49.5988307521" lon="-1.8165075313"><ele>37.15</ele><time>2018-09-05T08:10:03Z</time></trkpt><trkpt lat="49.5986561570" lon="-1.8167313281"><ele>36.19</ele><time>2018-09-05T08:10:08Z</time></trkpt><trkpt lat="49.5984088909" lon="-1.8169602379"><ele>36.19</ele><time>2018-09-05T08:10:13Z</time></trkpt><trkpt lat="49.5982873533" lon="-1.8169697933"><ele>35.71</ele><time>2018-09-05T08:10:15Z</time></trkpt><trkpt lat="49.5980973355" lon="-1.8170756567"><ele>34.26</ele><time>2018-09-05T08:10:19Z</time></trkpt><trkpt lat="49.5979598723" lon="-1.8173164688"><ele>33.30</ele><time>2018-09-05T08:10:23Z</time></trkpt><trkpt lat="49.5977901388" lon="-1.8176257610"><ele>32.34</ele><time>2018-09-05T08:10:27Z</time></trkpt><trkpt lat="49.5975370053" lon="-1.8184440024"><ele>33.78</ele><time>2018-09-05T08:10:35Z</time></trkpt><trkpt lat="49.5974070858" lon="-1.8186875805"><ele>34.74</ele><time>2018-09-05T08:10:38Z</time></trkpt><trkpt lat="49.5972031541" lon="-1.8189606629"><ele>36.19</ele><time>2018-09-05T08:10:42Z</time></trkpt><trkpt lat="49.5964601822" lon="-1.8194328994"><ele>35.71</ele><time>2018-09-05T08:10:53Z</time></trkpt><trkpt lat="49.5963138342" lon="-1.8194792513"><ele>35.71</ele><time>2018-09-05T08:10:55Z</time></trkpt><trkpt lat="49.5961603615" lon="-1.8194940034"><ele>35.23</ele><time>2018-09-05T08:10:57Z</time></trkpt><trkpt lat="49.5958521590" lon="-1.8193923309"><ele>34.74</ele><time>2018-09-05T08:11:02Z</time></trkpt><trkpt lat="49.5954137016" lon="-1.8194676843"><ele>33.78</ele><time>2018-09-05T08:11:11Z</time></trkpt><trkpt lat="49.5952088479" lon="-1.8196386751"><ele>33.78</ele><time>2018-09-05T08:11:15Z</time></trkpt><trkpt lat="49.5950559620" lon="-1.8197454605"><ele>33.78</ele><time>2018-09-05T08:11:18Z</time></trkpt><trkpt lat="49.5948222745" lon="-1.8198874500"><ele>33.30</ele><time>2018-09-05T08:11:22Z</time></trkpt><trkpt lat="49.5943458471" lon="-1.8202709220"><ele>32.34</ele><time>2018-09-05T08:11:32Z</time></trkpt><trkpt lat="49.5941297617" lon="-1.8204024341"><ele>31.86</ele><time>2018-09-05T08:11:36Z</time></trkpt><trkpt lat="49.5933062397" lon="-1.8205932062"><ele>30.42</ele><time>2018-09-05T08:11:49Z</time></trkpt><trkpt lat="49.5931189042" lon="-1.8206725828"><ele>30.42</ele><time>2018-09-05T08:11:52Z</time></trkpt><trkpt lat="49.5928237773" lon="-1.8209854793"><ele>30.42</ele><time>2018-09-05T08:11:58Z</time></trkpt><trkpt lat="49.5924697258" lon="-1.8211966194"><ele>29.94</ele><time>2018-09-05T08:12:04Z</time></trkpt><trkpt lat="49.5923536364" lon="-1.8212017324"><ele>28.98</ele><time>2018-09-05T08:12:06Z</time></trkpt><trkpt lat="49.5920518041" lon="-1.8211879861"><ele>28.02</ele><time>2018-09-05T08:12:11Z</time></trkpt><trkpt lat="49.5917569287" lon="-1.8213281315"><ele>28.02</ele><time>2018-09-05T08:12:16Z</time></trkpt><trkpt lat="49.5910881367" lon="-1.8214797601"><ele>27.53</ele><time>2018-09-05T08:12:27Z</time></trkpt><trkpt lat="49.5908490010" lon="-1.8215280399"><ele>26.57</ele><time>2018-09-05T08:12:31Z</time></trkpt><trkpt lat="49.5900082123" lon="-1.8215457257"><ele>24.17</ele><time>2018-09-05T08:12:44Z</time></trkpt><trkpt lat="49.5897107385" lon="-1.8216853682"><ele>23.69</ele><time>2018-09-05T08:12:49Z</time></trkpt><trkpt lat="49.5896388218" lon="-1.8218104262"><ele>23.69</ele><time>2018-09-05T08:12:51Z</time></trkpt><trkpt lat="49.5893391687" lon="-1.8220953271"><ele>24.65</ele><time>2018-09-05T08:12:57Z</time></trkpt><trkpt lat="49.5891682617" lon="-1.8222001847"><ele>24.65</ele><time>2018-09-05T08:13:00Z</time></trkpt><trkpt lat="49.5887347497" lon="-1.8223469518"><ele>23.21</ele><time>2018-09-05T08:13:08Z</time></trkpt><trkpt lat="49.5885996334" lon="-1.8225353770"><ele>22.25</ele><time>2018-09-05T08:13:11Z</time></trkpt><trkpt lat="49.5882619265" lon="-1.8227771949"><ele>21.77</ele><time>2018-09-05T08:13:17Z</time></trkpt><trkpt lat="49.5876454376" lon="-1.8229952920"><ele>19.36</ele><time>2018-09-05T08:13:28Z</time></trkpt><trkpt lat="49.5874567609" lon="-1.8230810389"><ele>18.40</ele><time>2018-09-05T08:13:31Z</time></trkpt><trkpt lat="49.5871540066" lon="-1.8231252115"><ele>18.40</ele><time>2018-09-05T08:13:36Z</time></trkpt><trkpt lat="49.5868616458" lon="-1.8231365271"><ele>18.40</ele><time>2018-09-05T08:13:41Z</time></trkpt><trkpt lat="49.5862925146" lon="-1.8234531116"><ele>20.81</ele><time>2018-09-05T08:13:52Z</time></trkpt><trkpt lat="49.5861107111" lon="-1.8235564604"><ele>21.29</ele><time>2018-09-05T08:13:55Z</time></trkpt><trkpt lat="49.5858838968" lon="-1.8236944266"><ele>21.77</ele><time>2018-09-05T08:13:59Z</time></trkpt><trkpt lat="49.5851850975" lon="-1.8241234962"><ele>20.81</ele><time>2018-09-05T08:14:11Z</time></trkpt><trkpt lat="49.5850148611" lon="-1.8242365681"><ele>20.81</ele><time>2018-09-05T08:14:14Z</time></trkpt><trkpt lat="49.5846826863" lon="-1.8246016838"><ele>20.81</ele><time>2018-09-05T08:14:21Z</time></trkpt><trkpt lat="49.5844621584" lon="-1.8247331120"><ele>21.29</ele><time>2018-09-05T08:14:25Z</time></trkpt><trkpt lat="49.5842055883" lon="-1.8248666357"><ele>21.77</ele><time>2018-09-05T08:14:30Z</time></trkpt><trkpt lat="49.5838324260" lon="-1.8251099624"><ele>20.32</ele><time>2018-09-05T08:14:37Z</time></trkpt><trkpt lat="49.5835511293" lon="-1.8252947833"><ele>18.88</ele><time>2018-09-05T08:14:42Z</time></trkpt><trkpt lat="49.5832667314" lon="-1.8257784192"><ele>17.44</ele><time>2018-09-05T08:14:50Z</time></trkpt><trkpt lat="49.5832378138" lon="-1.8258223403"><ele>17.44</ele><time>2018-09-05T08:14:51Z</time></trkpt><trkpt lat="49.5830254164" lon="-1.8261134438"><ele>15.52</ele><time>2018-09-05T08:15:02Z</time></trkpt><trkpt lat="49.5829825848" lon="-1.8261589576"><ele>16.00</ele><time>2018-09-05T08:15:08Z</time></trkpt><trkpt lat="49.5829211455" lon="-1.8261915632"><ele>15.52</ele><time>2018-09-05T08:15:20Z</time></trkpt><trkpt lat="49.5828393381" lon="-1.8262822554"><ele>16.00</ele><time>2018-09-05T08:15:30Z</time></trkpt><trkpt lat="49.5827018749" lon="-1.8264650647"><ele>15.04</ele><time>2018-09-05T08:15:37Z</time></trkpt><trkpt lat="49.5826869551" lon="-1.8265059683"><ele>15.04</ele><time>2018-09-05T08:15:42Z</time></trkpt><trkpt lat="49.5825686026" lon="-1.8265914638"><ele>15.04</ele><time>2018-09-05T08:15:57Z</time></trkpt><trkpt lat="49.5825322252" lon="-1.8265921343"><ele>15.52</ele><time>2018-09-05T08:16:02Z</time></trkpt><trkpt lat="49.5824571233" lon="-1.8266378995"><ele>14.56</ele><time>2018-09-05T08:16:09Z</time></trkpt><trkpt lat="49.5823961869" lon="-1.8266678229"><ele>15.04</ele><time>2018-09-05T08:16:16Z</time></trkpt><trkpt lat="49.5823396090" lon="-1.8266954832"><ele>15.04</ele><time>2018-09-05T08:16:23Z</time></trkpt><trkpt lat="49.5820253715" lon="-1.8268914521"><ele>14.56</ele><time>2018-09-05T08:16:34Z</time></trkpt><trkpt lat="49.5819641836" lon="-1.8268963136"><ele>14.08</ele><time>2018-09-05T08:16:36Z</time></trkpt><trkpt lat="49.5817431528" lon="-1.8271363713"><ele>14.08</ele><time>2018-09-05T08:16:42Z</time></trkpt><trkpt lat="49.5815021731" lon="-1.8275311589"><ele>12.63</ele><time>2018-09-05T08:16:50Z</time></trkpt><trkpt lat="49.5813668054" lon="-1.8277626671"><ele>11.67</ele><time>2018-09-05T08:16:55Z</time></trkpt><trkpt lat="49.5811854210" lon="-1.8280582130"><ele>10.71</ele><time>2018-09-05T08:17:04Z</time></trkpt><trkpt lat="49.5810310263" lon="-1.8283380847"><ele>12.63</ele><time>2018-09-05T08:17:13Z</time></trkpt><trkpt lat="49.5807987638" lon="-1.8284913059"><ele>16.48</ele><time>2018-09-05T08:17:23Z</time></trkpt><trkpt lat="49.5804724563" lon="-1.8288290966"><ele>19.36</ele><time>2018-09-05T08:17:35Z</time></trkpt><trkpt lat="49.5804034732" lon="-1.8289036956"><ele>19.84</ele><time>2018-09-05T08:17:37Z</time></trkpt><trkpt lat="49.5802126173" lon="-1.8291450106"><ele>20.32</ele><time>2018-09-05T08:17:43Z</time></trkpt><trkpt lat="49.5798464119" lon="-1.8293310888"><ele>19.84</ele><time>2018-09-05T08:17:51Z</time></trkpt><trkpt lat="49.5795918535" lon="-1.8293962162"><ele>20.32</ele><time>2018-09-05T08:17:56Z</time></trkpt><trkpt lat="49.5793337747" lon="-1.8295388762"><ele>20.32</ele><time>2018-09-05T08:18:01Z</time></trkpt><trkpt lat="49.5791311003" lon="-1.8295875750"><ele>20.32</ele><time>2018-09-05T08:18:05Z</time></trkpt><trkpt lat="49.5790249854" lon="-1.8295599148"><ele>20.32</ele><time>2018-09-05T08:18:07Z</time></trkpt><trkpt lat="49.5787989255" lon="-1.8295190949"><ele>20.32</ele><time>2018-09-05T08:18:11Z</time></trkpt><trkpt lat="49.5785405952" lon="-1.8296070211"><ele>20.81</ele><time>2018-09-05T08:18:16Z</time></trkpt><trkpt lat="49.5782549400" lon="-1.8296178337"><ele>20.81</ele><time>2018-09-05T08:18:21Z</time></trkpt><trkpt lat="49.5781018864" lon="-1.8297045026"><ele>20.32</ele><time>2018-09-05T08:18:24Z</time></trkpt><trkpt lat="49.5775955357" lon="-1.8299283832"><ele>18.88</ele><time>2018-09-05T08:18:33Z</time></trkpt><trkpt lat="49.5774807874" lon="-1.8299510982"><ele>18.40</ele><time>2018-09-05T08:18:35Z</time></trkpt><trkpt lat="49.5773724932" lon="-1.8299505953"><ele>17.92</ele><time>2018-09-05T08:18:37Z</time></trkpt><trkpt lat="49.5771543961" lon="-1.8299126253"><ele>16.96</ele><time>2018-09-05T08:18:41Z</time></trkpt><trkpt lat="49.5768422540" lon="-1.8298445642"><ele>17.92</ele><time>2018-09-05T08:18:46Z</time></trkpt><trkpt lat="49.5766037051" lon="-1.8297246192"><ele>18.88</ele><time>2018-09-05T08:18:50Z</time></trkpt><trkpt lat="49.5764204767" lon="-1.8297246192"><ele>18.88</ele><time>2018-09-05T08:18:54Z</time></trkpt><trkpt lat="49.5760049857" lon="-1.8298191670"><ele>17.92</ele><time>2018-09-05T08:19:01Z</time></trkpt><trkpt lat="49.5758695342" lon="-1.8297722284"><ele>16.96</ele><time>2018-09-05T08:19:03Z</time></trkpt><trkpt lat="49.5753073599" lon="-1.8298042472"><ele>16.96</ele><time>2018-09-05T08:19:12Z</time></trkpt><trkpt lat="49.5751666278" lon="-1.8298449833"><ele>16.96</ele><time>2018-09-05T08:19:15Z</time></trkpt><trkpt lat="49.5749429986" lon="-1.8299160618"><ele>17.44</ele><time>2018-09-05T08:19:20Z</time></trkpt><trkpt lat="49.5741932373" lon="-1.8300286308"><ele>16.00</ele><time>2018-09-05T08:19:33Z</time></trkpt><trkpt lat="49.5737042371" lon="-1.8300867174"><ele>15.04</ele><time>2018-09-05T08:19:41Z</time></trkpt><trkpt lat="49.5733045880" lon="-1.8300004676"><ele>13.60</ele><time>2018-09-05T08:19:49Z</time></trkpt><trkpt lat="49.5732492674" lon="-1.8301471509"><ele>13.12</ele><time>2018-09-05T08:19:54Z</time></trkpt><trkpt lat="49.5734272990" lon="-1.8311549071"><ele>13.12</ele><time>2018-09-05T08:20:07Z</time></trkpt><trkpt lat="49.5736940950" lon="-1.8326300383"><ele>13.12</ele><time>2018-09-05T08:20:23Z</time></trkpt><trkpt lat="49.5738961827" lon="-1.8336150795"><ele>12.63</ele><time>2018-09-05T08:20:35Z</time></trkpt><trkpt lat="49.5740930736" lon="-1.8346353248"><ele>11.67</ele><time>2018-09-05T08:20:48Z</time></trkpt><trkpt lat="49.5741110947" lon="-1.8348433636"><ele>11.19</ele><time>2018-09-05T08:20:53Z</time></trkpt><trkpt lat="49.5739569515" lon="-1.8351343833"><ele>11.19</ele><time>2018-09-05T08:20:59Z</time></trkpt><trkpt lat="49.5736878086" lon="-1.8353834096"><ele>10.71</ele><time>2018-09-05T08:21:06Z</time></trkpt><trkpt lat="49.5737242699" lon="-1.8357180152"><ele>11.19</ele><time>2018-09-05T08:21:12Z</time></trkpt><trkpt lat="49.5737085957" lon="-1.8361602444"><ele>12.63</ele><time>2018-09-05T08:21:20Z</time></trkpt><trkpt lat="49.5736734755" lon="-1.8363709655"><ele>11.67</ele><time>2018-09-05T08:21:24Z</time></trkpt><trkpt lat="49.5736316498" lon="-1.8365273718"><ele>11.19</ele><time>2018-09-05T08:21:27Z</time></trkpt><trkpt lat="49.5735828672" lon="-1.8366003782"><ele>10.71</ele><time>2018-09-05T08:21:29Z</time></trkpt><trkpt lat="49.5735391974" lon="-1.8368751369"><ele>10.71</ele><time>2018-09-05T08:21:39Z</time></trkpt><trkpt lat="49.5734416321" lon="-1.8370126002"><ele>11.19</ele><time>2018-09-05T08:21:54Z</time></trkpt><trkpt lat="49.5734270476" lon="-1.8370341416"><ele>11.19</ele><time>2018-09-05T08:22:11Z</time></trkpt><trkpt lat="49.5734268799" lon="-1.8370344769"><ele>11.19</ele><time>2018-09-05T08:22:12Z</time></trkpt><trkpt lat="49.5733874850" lon="-1.8371825013"><ele>10.23</ele><time>2018-09-05T08:22:16Z</time></trkpt><trkpt lat="49.5733117126" lon="-1.8373701721"><ele>11.19</ele><time>2018-09-05T08:22:20Z</time></trkpt><trkpt lat="49.5732272230" lon="-1.8376596831"><ele>11.67</ele><time>2018-09-05T08:22:29Z</time></trkpt><trkpt lat="49.5730822999" lon="-1.8378800433"><ele>10.71</ele><time>2018-09-05T08:22:35Z</time></trkpt><trkpt lat="49.5730273146" lon="-1.8380210269"><ele>9.75</ele><time>2018-09-05T08:22:38Z</time></trkpt><trkpt lat="49.5727913640" lon="-1.8384313211"><ele>9.75</ele><time>2018-09-05T08:22:48Z</time></trkpt><trkpt lat="49.5727334451" lon="-1.8384804390"><ele>9.27</ele><time>2018-09-05T08:22:50Z</time></trkpt><trkpt lat="49.5723980013" lon="-1.8386002164"><ele>8.79</ele><time>2018-09-05T08:22:59Z</time></trkpt><trkpt lat="49.5722546708" lon="-1.8385034893"><ele>7.83</ele><time>2018-09-05T08:23:06Z</time></trkpt><trkpt lat="49.5722617116" lon="-1.8384472467"><ele>7.83</ele><time>2018-09-05T08:23:07Z</time></trkpt><trkpt lat="49.5722840913" lon="-1.8381651957"><ele>6.87</ele><time>2018-09-05T08:23:12Z</time></trkpt><trkpt lat="49.5722286031" lon="-1.8380338512"><ele>6.87</ele><time>2018-09-05T08:23:15Z</time></trkpt><trkpt lat="49.5719657466" lon="-1.8379516248"><ele>5.91</ele><time>2018-09-05T08:23:24Z</time></trkpt><trkpt lat="49.5718556922" lon="-1.8378886767"><ele>4.94</ele><time>2018-09-05T08:23:34Z</time></trkpt><trkpt lat="49.5714713819" lon="-1.8378877547"><ele>7.35</ele><time>2018-09-05T08:23:45Z</time></trkpt><trkpt lat="49.5713014808" lon="-1.8379659578"><ele>8.31</ele><time>2018-09-05T08:23:50Z</time></trkpt><trkpt lat="49.5712480880" lon="-1.8381605856"><ele>7.83</ele><time>2018-09-05T08:23:54Z</time></trkpt><trkpt lat="49.5711112954" lon="-1.8382283952"><ele>7.35</ele><time>2018-09-05T08:24:00Z</time></trkpt><trkpt lat="49.5709975529" lon="-1.8382091168"><ele>7.83</ele><time>2018-09-05T08:24:03Z</time></trkpt><trkpt lat="49.5709038433" lon="-1.8383065145"><ele>7.83</ele><time>2018-09-05T08:24:07Z</time></trkpt><trkpt lat="49.5707727503" lon="-1.8392517418"><ele>8.31</ele><time>2018-09-05T08:24:21Z</time></trkpt><trkpt lat="49.5706296712" lon="-1.8402150739"><ele>8.31</ele><time>2018-09-05T08:24:32Z</time></trkpt><trkpt lat="49.5706534758" lon="-1.8406471610"><ele>8.79</ele><time>2018-09-05T08:24:37Z</time></trkpt><trkpt lat="49.5706109796" lon="-1.8412257638"><ele>8.79</ele><time>2018-09-05T08:24:44Z</time></trkpt><trkpt lat="49.5704270806" lon="-1.8417104892"><ele>12.15</ele><time>2018-09-05T08:24:53Z</time></trkpt><trkpt lat="49.5703498833" lon="-1.8417736888"><ele>12.63</ele><time>2018-09-05T08:24:55Z</time></trkpt><trkpt lat="49.5701239910" lon="-1.8418782949"><ele>13.12</ele><time>2018-09-05T08:25:00Z</time></trkpt><trkpt lat="49.5699426066" lon="-1.8419815600"><ele>13.12</ele><time>2018-09-05T08:25:04Z</time></trkpt><trkpt lat="49.5690951962" lon="-1.8423489388"><ele>13.60</ele><time>2018-09-05T08:25:20Z</time></trkpt><trkpt lat="49.5689485967" lon="-1.8424066901"><ele>13.12</ele><time>2018-09-05T08:25:23Z</time></trkpt><trkpt lat="49.5687428210" lon="-1.8424128089"><ele>13.60</ele><time>2018-09-05T08:25:30Z</time></trkpt><trkpt lat="49.5685378835" lon="-1.8420637026"><ele>12.63</ele><time>2018-09-05T08:25:36Z</time></trkpt><trkpt lat="49.5683686528" lon="-1.8419761118"><ele>12.63</ele><time>2018-09-05T08:25:41Z</time></trkpt><trkpt lat="49.5682960656" lon="-1.8420548178"><ele>12.15</ele><time>2018-09-05T08:25:43Z</time></trkpt><trkpt lat="49.5676904730" lon="-1.8429032341"><ele>12.63</ele><time>2018-09-05T08:26:00Z</time></trkpt><trkpt lat="49.5675742999" lon="-1.8430605624"><ele>13.12</ele><time>2018-09-05T08:26:03Z</time></trkpt><trkpt lat="49.5672636665" lon="-1.8433862831"><ele>12.15</ele><time>2018-09-05T08:26:10Z</time></trkpt><trkpt lat="49.5669452380" lon="-1.8435897958"><ele>12.63</ele><time>2018-09-05T08:26:16Z</time></trkpt><trkpt lat="49.5666411426" lon="-1.8435967527"><ele>12.15</ele><time>2018-09-05T08:26:21Z</time></trkpt><trkpt lat="49.5663896855" lon="-1.8434975110"><ele>13.12</ele><time>2018-09-05T08:26:25Z</time></trkpt><trkpt lat="49.5662712492" lon="-1.8434576970"><ele>12.15</ele><time>2018-09-05T08:26:27Z</time></trkpt><trkpt lat="49.5660189539" lon="-1.8434719462"><ele>11.19</ele><time>2018-09-05T08:26:31Z</time></trkpt><trkpt lat="49.5658938121" lon="-1.8435251713"><ele>11.19</ele><time>2018-09-05T08:26:33Z</time></trkpt><trkpt lat="49.5652647503" lon="-1.8442202825"><ele>12.15</ele><time>2018-09-05T08:26:45Z</time></trkpt><trkpt lat="49.5648645144" lon="-1.8446537945"><ele>11.67</ele><time>2018-09-05T08:26:53Z</time></trkpt><trkpt lat="49.5647392049" lon="-1.8448339216"><ele>11.67</ele><time>2018-09-05T08:26:56Z</time></trkpt><trkpt lat="49.5639344584" lon="-1.8458201364"><ele>11.19</ele><time>2018-09-05T08:27:13Z</time></trkpt><trkpt lat="49.5636141021" lon="-1.8462553248"><ele>11.19</ele><time>2018-09-05T08:27:20Z</time></trkpt><trkpt lat="49.5635326300" lon="-1.8463714980"><ele>11.19</ele><time>2018-09-05T08:27:22Z</time></trkpt><trkpt lat="49.5633802470" lon="-1.8465880025"><ele>11.67</ele><time>2018-09-05T08:27:26Z</time></trkpt><trkpt lat="49.5631812606" lon="-1.8466198537"><ele>12.15</ele><time>2018-09-05T08:27:30Z</time></trkpt><trkpt lat="49.5627472457" lon="-1.8465138227"><ele>14.56</ele><time>2018-09-05T08:27:39Z</time></trkpt><trkpt lat="49.5625022426" lon="-1.8464585021"><ele>16.48</ele><time>2018-09-05T08:27:45Z</time></trkpt><trkpt lat="49.5623052679" lon="-1.8464598432"><ele>16.48</ele><time>2018-09-05T08:27:51Z</time></trkpt><trkpt lat="49.5616523176" lon="-1.8463632837"><ele>18.88</ele><time>2018-09-05T08:28:08Z</time></trkpt><trkpt lat="49.5615823288" lon="-1.8463575840"><ele>19.36</ele><time>2018-09-05T08:28:10Z</time></trkpt><trkpt lat="49.5616441034" lon="-1.8465056084"><ele>19.36</ele><time>2018-09-05T08:28:17Z</time></trkpt><trkpt lat="49.5618342888" lon="-1.8466574047"><ele>19.36</ele><time>2018-09-05T08:28:22Z</time></trkpt><trkpt lat="49.5622765180" lon="-1.8470692914"><ele>18.40</ele><time>2018-09-05T08:28:32Z</time></trkpt><trkpt lat="49.5625267178" lon="-1.8475516699"><ele>19.36</ele><time>2018-09-05T08:28:41Z</time></trkpt><trkpt lat="49.5625134744" lon="-1.8476862833"><ele>19.84</ele><time>2018-09-05T08:28:43Z</time></trkpt><trkpt lat="49.5625422243" lon="-1.8479689211"><ele>21.29</ele><time>2018-09-05T08:28:48Z</time></trkpt><trkpt lat="49.5628245268" lon="-1.8480573501"><ele>22.73</ele><time>2018-09-05T08:28:55Z</time></trkpt><trkpt lat="49.5629840344" lon="-1.8482260779"><ele>22.73</ele><time>2018-09-05T08:28:59Z</time></trkpt><trkpt lat="49.5630550291" lon="-1.8483236432"><ele>23.21</ele><time>2018-09-05T08:29:01Z</time></trkpt><trkpt lat="49.5631868765" lon="-1.8485080451"><ele>23.21</ele><time>2018-09-05T08:29:05Z</time></trkpt><trkpt lat="49.5632493217" lon="-1.8486259785"><ele>24.17</ele><time>2018-09-05T08:29:14Z</time></trkpt><trkpt lat="49.5632925723" lon="-1.8486767728"><ele>25.13</ele><time>2018-09-05T08:29:25Z</time></trkpt><trkpt lat="49.5633374155" lon="-1.8489527050"><ele>24.65</ele><time>2018-09-05T08:29:34Z</time></trkpt><trkpt lat="49.5633796602" lon="-1.8490780983"><ele>24.17</ele><time>2018-09-05T08:29:37Z</time></trkpt><trkpt lat="49.5633861981" lon="-1.8495957647"><ele>24.17</ele><time>2018-09-05T08:29:48Z</time></trkpt><trkpt lat="49.5633003674" lon="-1.8497033045"><ele>24.17</ele><time>2018-09-05T08:29:51Z</time></trkpt><trkpt lat="49.5631116908" lon="-1.8498095032"><ele>24.17</ele><time>2018-09-05T08:29:56Z</time></trkpt><trkpt lat="49.5628749020" lon="-1.8499813322"><ele>24.65</ele><time>2018-09-05T08:30:03Z</time></trkpt><trkpt lat="49.5628671907" lon="-1.8501884490"><ele>22.73</ele><time>2018-09-05T08:30:10Z</time></trkpt><trkpt lat="49.5629124530" lon="-1.8503560033"><ele>21.29</ele><time>2018-09-05T08:30:13Z</time></trkpt><trkpt lat="49.5627563819" lon="-1.8504487071"><ele>20.81</ele><time>2018-09-05T08:30:19Z</time></trkpt><trkpt lat="49.5625389554" lon="-1.8505897745"><ele>21.77</ele><time>2018-09-05T08:30:25Z</time></trkpt><trkpt lat="49.5623735804" lon="-1.8507851567"><ele>21.77</ele><time>2018-09-05T08:30:30Z</time></trkpt><trkpt lat="49.5622406434" lon="-1.8509854004"><ele>21.77</ele><time>2018-09-05T08:30:34Z</time></trkpt><trkpt lat="49.5621304214" lon="-1.8513281364"><ele>20.81</ele><time>2018-09-05T08:30:39Z</time></trkpt><trkpt lat="49.5621018391" lon="-1.8516710401"><ele>20.32</ele><time>2018-09-05T08:30:43Z</time></trkpt><trkpt lat="49.5620806329" lon="-1.8520412687"><ele>18.40</ele><time>2018-09-05T08:30:52Z</time></trkpt><trkpt lat="49.5620561577" lon="-1.8520651571"><ele>18.40</ele><time>2018-09-05T08:30:57Z</time></trkpt><trkpt lat="49.5620572474" lon="-1.8521119282"><ele>18.40</ele><time>2018-09-05T08:31:02Z</time></trkpt><trkpt lat="49.5619639568" lon="-1.8523866870"><ele>18.40</ele><time>2018-09-05T08:31:11Z</time></trkpt><trkpt lat="49.5618021861" lon="-1.8527321890"><ele>17.44</ele><time>2018-09-05T08:31:18Z</time></trkpt><trkpt lat="49.5617050398" lon="-1.8528410699"><ele>16.96</ele><time>2018-09-05T08:31:21Z</time></trkpt><trkpt lat="49.5614514872" lon="-1.8529947102"><ele>16.96</ele><time>2018-09-05T08:31:26Z</time></trkpt><trkpt lat="49.5612871181" lon="-1.8530628551"><ele>16.48</ele><time>2018-09-05T08:31:29Z</time></trkpt><trkpt lat="49.5609066635" lon="-1.8529627752"><ele>16.96</ele><time>2018-09-05T08:31:37Z</time></trkpt><trkpt lat="49.5606612414" lon="-1.8528879248"><ele>18.40</ele><time>2018-09-05T08:31:42Z</time></trkpt><trkpt lat="49.5605744049" lon="-1.8528374657"><ele>18.40</ele><time>2018-09-05T08:31:44Z</time></trkpt><trkpt lat="49.5602387097" lon="-1.8527140841"><ele>18.40</ele><time>2018-09-05T08:31:51Z</time></trkpt><trkpt lat="49.5598770306" lon="-1.8526844960"><ele>17.92</ele><time>2018-09-05T08:32:00Z</time></trkpt><trkpt lat="49.5595485438" lon="-1.8527554907"><ele>16.96</ele><time>2018-09-05T08:32:07Z</time></trkpt><trkpt lat="49.5593120903" lon="-1.8527875096"><ele>17.44</ele><time>2018-09-05T08:32:12Z</time></trkpt><trkpt lat="49.5589157101" lon="-1.8528845720"><ele>16.48</ele><time>2018-09-05T08:32:21Z</time></trkpt><trkpt lat="49.5587105211" lon="-1.8530101329"><ele>16.48</ele><time>2018-09-05T08:32:27Z</time></trkpt><trkpt lat="49.5586469024" lon="-1.8530725781"><ele>16.96</ele><time>2018-09-05T08:32:38Z</time></trkpt><trkpt lat="49.5585837867" lon="-1.8530810438"><ele>16.96</ele><time>2018-09-05T08:32:50Z</time></trkpt><trkpt lat="49.5585774165" lon="-1.8530784454"><ele>16.48</ele><time>2018-09-05T08:33:07Z</time></trkpt><trkpt lat="49.5583874825" lon="-1.8531512842"><ele>16.48</ele><time>2018-09-05T08:33:17Z</time></trkpt><trkpt lat="49.5579574909" lon="-1.8533454929"><ele>16.48</ele><time>2018-09-05T08:33:32Z</time></trkpt><trkpt lat="49.5576542336" lon="-1.8535011448"><ele>16.00</ele><time>2018-09-05T08:33:44Z</time></trkpt><trkpt lat="49.5573515631" lon="-1.8536538631"><ele>16.00</ele><time>2018-09-05T08:33:57Z</time></trkpt><trkpt lat="49.5571223181" lon="-1.8537511770"><ele>15.04</ele><time>2018-09-05T08:34:06Z</time></trkpt><trkpt lat="49.5570101682" lon="-1.8538362533"><ele>15.52</ele><time>2018-09-05T08:34:11Z</time></trkpt><trkpt lat="49.5567254350" lon="-1.8540071603"><ele>14.08</ele><time>2018-09-05T08:34:23Z</time></trkpt><trkpt lat="49.5564368460" lon="-1.8542069010"><ele>12.63</ele><time>2018-09-05T08:34:34Z</time></trkpt><trkpt lat="49.5560939424" lon="-1.8543983437"><ele>13.12</ele><time>2018-09-05T08:34:44Z</time></trkpt><trkpt lat="49.5557176787" lon="-1.8545939773"><ele>15.52</ele><time>2018-09-05T08:34:55Z</time></trkpt><trkpt lat="49.5553357154" lon="-1.8547602743"><ele>18.88</ele><time>2018-09-05T08:35:08Z</time></trkpt><trkpt lat="49.5552159380" lon="-1.8548808061"><ele>18.40</ele><time>2018-09-05T08:35:17Z</time></trkpt><trkpt lat="49.5552071370" lon="-1.8548907805"><ele>17.92</ele><time>2018-09-05T08:35:34Z</time></trkpt><trkpt lat="49.5551553369" lon="-1.8549329415"><ele>18.88</ele><time>2018-09-05T08:35:45Z</time></trkpt><trkpt lat="49.5551507268" lon="-1.8549279124"><ele>18.40</ele><time>2018-09-05T08:35:59Z</time></trkpt><trkpt lat="49.5551104099" lon="-1.8549697381"><ele>18.40</ele><time>2018-09-05T08:36:13Z</time></trkpt><trkpt lat="49.5548643172" lon="-1.8553739134"><ele>19.36</ele><time>2018-09-05T08:36:25Z</time></trkpt><trkpt lat="49.5545972697" lon="-1.8557691202"><ele>19.84</ele><time>2018-09-05T08:36:35Z</time></trkpt><trkpt lat="49.5544893108" lon="-1.8559797574"><ele>19.36</ele><time>2018-09-05T08:36:39Z</time></trkpt><trkpt lat="49.5544021390" lon="-1.8561293744"><ele>19.36</ele><time>2018-09-05T08:36:42Z</time></trkpt><trkpt lat="49.5542039908" lon="-1.8563429452"><ele>18.40</ele><time>2018-09-05T08:36:47Z</time></trkpt><trkpt lat="49.5541358460" lon="-1.8564299494"><ele>18.40</ele><time>2018-09-05T08:36:49Z</time></trkpt><trkpt lat="49.5540146437" lon="-1.8565726932"><ele>18.40</ele><time>2018-09-05T08:36:52Z</time></trkpt><trkpt lat="49.5539097860" lon="-1.8566526566"><ele>17.44</ele><time>2018-09-05T08:36:56Z</time></trkpt><trkpt lat="49.5536433253" lon="-1.8568607792"><ele>17.44</ele><time>2018-09-05T08:37:03Z</time></trkpt><trkpt lat="49.5535621047" lon="-1.8569178600"><ele>17.92</ele><time>2018-09-05T08:37:06Z</time></trkpt><trkpt lat="49.5534973964" lon="-1.8568948098"><ele>18.88</ele><time>2018-09-05T08:37:09Z</time></trkpt><trkpt lat="49.5532997511" lon="-1.8568548281"><ele>19.36</ele><time>2018-09-05T08:37:13Z</time></trkpt><trkpt lat="49.5528620481" lon="-1.8567570113"><ele>16.00</ele><time>2018-09-05T08:37:20Z</time></trkpt><trkpt lat="49.5522320643" lon="-1.8565637246"><ele>11.19</ele><time>2018-09-05T08:37:28Z</time></trkpt><trkpt lat="49.5521879755" lon="-1.8562805001"><ele>10.23</ele><time>2018-09-05T08:37:33Z</time></trkpt><trkpt lat="49.5522341598" lon="-1.8559697829"><ele>10.23</ele><time>2018-09-05T08:37:37Z</time></trkpt><trkpt lat="49.5522530191" lon="-1.8558134604"><ele>9.75</ele><time>2018-09-05T08:37:39Z</time></trkpt><trkpt lat="49.5523755625" lon="-1.8549532257"><ele>11.19</ele><time>2018-09-05T08:37:50Z</time></trkpt><trkpt lat="49.5523895603" lon="-1.8536874745"><ele>10.71</ele><time>2018-09-05T08:38:05Z</time></trkpt><trkpt lat="49.5525529236" lon="-1.8525238987"><ele>10.71</ele><time>2018-09-05T08:38:19Z</time></trkpt><trkpt lat="49.5525908936" lon="-1.8523648940"><ele>10.23</ele><time>2018-09-05T08:38:21Z</time></trkpt><trkpt lat="49.5526133571" lon="-1.8517544400"><ele>11.19</ele><time>2018-09-05T08:38:28Z</time></trkpt><trkpt lat="49.5525626466" lon="-1.8511752505"><ele>12.15</ele><time>2018-09-05T08:38:35Z</time></trkpt><trkpt lat="49.5524441265" lon="-1.8508942891"><ele>12.63</ele><time>2018-09-05T08:38:39Z</time></trkpt><trkpt lat="49.5519987121" lon="-1.8503606133"><ele>13.60</ele><time>2018-09-05T08:38:48Z</time></trkpt><trkpt lat="49.5516247954" lon="-1.8496478163"><ele>13.60</ele><time>2018-09-05T08:38:58Z</time></trkpt><trkpt lat="49.5515136514" lon="-1.8493370153"><ele>13.12</ele><time>2018-09-05T08:39:02Z</time></trkpt><trkpt lat="49.5510263275" lon="-1.8484124914"><ele>15.04</ele><time>2018-09-05T08:39:17Z</time></trkpt><trkpt lat="49.5508481283" lon="-1.8481391575"><ele>15.52</ele><time>2018-09-05T08:39:22Z</time></trkpt><trkpt lat="49.5506365690" lon="-1.8477375805"><ele>15.52</ele><time>2018-09-05T08:39:29Z</time></trkpt><trkpt lat="49.5501308050" lon="-1.8473203294"><ele>17.44</ele><time>2018-09-05T08:39:42Z</time></trkpt><trkpt lat="49.5498578902" lon="-1.8470672797"><ele>20.81</ele><time>2018-09-05T08:39:52Z</time></trkpt><trkpt lat="49.5497455727" lon="-1.8468922656"><ele>21.77</ele><time>2018-09-05T08:39:57Z</time></trkpt><trkpt lat="49.5496346802" lon="-1.8467167486"><ele>22.73</ele><time>2018-09-05T08:40:01Z</time></trkpt><trkpt lat="49.5494770166" lon="-1.8464942928"><ele>23.69</ele><time>2018-09-05T08:40:06Z</time></trkpt><trkpt lat="49.5491501223" lon="-1.8460536562"><ele>24.17</ele><time>2018-09-05T08:40:16Z</time></trkpt><trkpt lat="49.5490205381" lon="-1.8458818272"><ele>24.65</ele><time>2018-09-05T08:40:20Z</time></trkpt><trkpt lat="49.5489140879" lon="-1.8456887081"><ele>25.13</ele><time>2018-09-05T08:40:24Z</time></trkpt><trkpt lat="49.5487589389" lon="-1.8453360815"><ele>25.61</ele><time>2018-09-05T08:40:31Z</time></trkpt><trkpt lat="49.5487213880" lon="-1.8450762425"><ele>25.61</ele><time>2018-09-05T08:40:35Z</time></trkpt><trkpt lat="49.5486952364" lon="-1.8447296508"><ele>26.09</ele><time>2018-09-05T08:40:40Z</time></trkpt><trkpt lat="49.5486568473" lon="-1.8436635565"><ele>26.09</ele><time>2018-09-05T08:40:54Z</time></trkpt><trkpt lat="49.5486571826" lon="-1.8430908211"><ele>26.57</ele><time>2018-09-05T08:41:01Z</time></trkpt><trkpt lat="49.5486893691" lon="-1.8427371047"><ele>26.57</ele><time>2018-09-05T08:41:05Z</time></trkpt><trkpt lat="49.5487920474" lon="-1.8423276488"><ele>26.57</ele><time>2018-09-05T08:41:10Z</time></trkpt><trkpt lat="49.5488293469" lon="-1.8421624415"><ele>26.57</ele><time>2018-09-05T08:41:12Z</time></trkpt><trkpt lat="49.5488415007" lon="-1.8419905286"><ele>26.57</ele><time>2018-09-05T08:41:14Z</time></trkpt><trkpt lat="49.5486114174" lon="-1.8414369039"><ele>26.57</ele><time>2018-09-05T08:41:23Z</time></trkpt><trkpt lat="49.5484277699" lon="-1.8413065653"><ele>26.09</ele><time>2018-09-05T08:41:27Z</time></trkpt><trkpt lat="49.5482507441" lon="-1.8411782384"><ele>25.61</ele><time>2018-09-05T08:41:31Z</time></trkpt><trkpt lat="49.5480495784" lon="-1.8409492448"><ele>24.65</ele><time>2018-09-05T08:41:36Z</time></trkpt><trkpt lat="49.5478912443" lon="-1.8406369351"><ele>24.65</ele><time>2018-09-05T08:41:41Z</time></trkpt><trkpt lat="49.5478020608" lon="-1.8404634297"><ele>24.65</ele><time>2018-09-05T08:41:44Z</time></trkpt><trkpt lat="49.5475500170" lon="-1.8397257384"><ele>25.13</ele><time>2018-09-05T08:41:57Z</time></trkpt><trkpt lat="49.5473631006" lon="-1.8390802480"><ele>27.53</ele><time>2018-09-05T08:42:10Z</time></trkpt><trkpt lat="49.5471786987" lon="-1.8383894116"><ele>30.42</ele><time>2018-09-05T08:42:26Z</time></trkpt><trkpt lat="49.5469340310" lon="-1.8377735931"><ele>30.90</ele><time>2018-09-05T08:42:39Z</time></trkpt><trkpt lat="49.5465819072" lon="-1.8368604686"><ele>31.38</ele><time>2018-09-05T08:42:56Z</time></trkpt><trkpt lat="49.5463857707" lon="-1.8362728972"><ele>31.38</ele><time>2018-09-05T08:43:06Z</time></trkpt><trkpt lat="49.5461002830" lon="-1.8353404943"><ele>29.46</ele><time>2018-09-05T08:43:17Z</time></trkpt><trkpt lat="49.5460128598" lon="-1.8351637200"><ele>29.46</ele><time>2018-09-05T08:43:19Z</time></trkpt><trkpt lat="49.5456992090" lon="-1.8349138554"><ele>28.02</ele><time>2018-09-05T08:43:24Z</time></trkpt><trkpt lat="49.5447741821" lon="-1.8348094169"><ele>22.25</ele><time>2018-09-05T08:43:35Z</time></trkpt><trkpt lat="49.5446857531" lon="-1.8348068185"><ele>21.77</ele><time>2018-09-05T08:43:36Z</time></trkpt><trkpt lat="49.5444119163" lon="-1.8345688563"><ele>19.84</ele><time>2018-09-05T08:43:40Z</time></trkpt><trkpt lat="49.5442431886" lon="-1.8340440653"><ele>18.40</ele><time>2018-09-05T08:43:45Z</time></trkpt><trkpt lat="49.5440970920" lon="-1.8329374865"><ele>18.40</ele><time>2018-09-05T08:43:57Z</time></trkpt><trkpt lat="49.5440476388" lon="-1.8325078301"><ele>19.36</ele><time>2018-09-05T08:44:02Z</time></trkpt><trkpt lat="49.5440712757" lon="-1.8321592268"><ele>19.84</ele><time>2018-09-05T08:44:06Z</time></trkpt><trkpt lat="49.5441078208" lon="-1.8317320012"><ele>20.32</ele><time>2018-09-05T08:44:11Z</time></trkpt><trkpt lat="49.5441074017" lon="-1.8314890936"><ele>20.81</ele><time>2018-09-05T08:44:14Z</time></trkpt><trkpt lat="49.5440854412" lon="-1.8312607706"><ele>20.81</ele><time>2018-09-05T08:44:17Z</time></trkpt><trkpt lat="49.5439494867" lon="-1.8308200501"><ele>21.29</ele><time>2018-09-05T08:44:24Z</time></trkpt><trkpt lat="49.5438611414" lon="-1.8306172919"><ele>22.25</ele><time>2018-09-05T08:44:28Z</time></trkpt><trkpt lat="49.5439364947" lon="-1.8303933274"><ele>22.73</ele><time>2018-09-05T08:44:33Z</time></trkpt><trkpt lat="49.5443659835" lon="-1.8302216660"><ele>23.69</ele><time>2018-09-05T08:44:46Z</time></trkpt><trkpt lat="49.5446072146" lon="-1.8300888967"><ele>24.17</ele><time>2018-09-05T08:44:54Z</time></trkpt><trkpt lat="49.5446527284" lon="-1.8298245315"><ele>25.61</ele><time>2018-09-05T08:45:00Z</time></trkpt><trkpt lat="49.5446363837" lon="-1.8291712459"><ele>27.05</ele><time>2018-09-05T08:45:15Z</time></trkpt><trkpt lat="49.5447292551" lon="-1.8288480397"><ele>31.38</ele><time>2018-09-05T08:45:24Z</time></trkpt><trkpt lat="49.5446329471" lon="-1.8286845088"><ele>36.19</ele><time>2018-09-05T08:45:33Z</time></trkpt><trkpt lat="49.5445881877" lon="-1.8286554236"><ele>37.63</ele><time>2018-09-05T08:45:35Z</time></trkpt><trkpt lat="49.5442921389" lon="-1.8283940759"><ele>39.55</ele><time>2018-09-05T08:45:46Z</time></trkpt><trkpt lat="49.5440835971" lon="-1.8283247575"><ele>40.03</ele><time>2018-09-05T08:45:50Z</time></trkpt><trkpt lat="49.5435220934" lon="-1.8281743862"><ele>40.03</ele><time>2018-09-05T08:46:00Z</time></trkpt><trkpt lat="49.5432478376" lon="-1.8280822691"><ele>40.03</ele><time>2018-09-05T08:46:05Z</time></trkpt><trkpt lat="49.5430472586" lon="-1.8280330673"><ele>39.07</ele><time>2018-09-05T08:46:09Z</time></trkpt><trkpt lat="49.5428344421" lon="-1.8280277867"><ele>38.59</ele><time>2018-09-05T08:46:13Z</time></trkpt><trkpt lat="49.5427555684" lon="-1.8280968536"><ele>37.15</ele><time>2018-09-05T08:46:22Z</time></trkpt><trkpt lat="49.5427394751" lon="-1.8280986138"><ele>33.78</ele><time>2018-09-05T08:46:42Z</time></trkpt><trkpt lat="49.5427172631" lon="-1.8281409424"><ele>31.38</ele><time>2018-09-05T08:46:59Z</time></trkpt><trkpt lat="49.5426077954" lon="-1.8280903157"><ele>30.42</ele><time>2018-09-05T08:47:04Z</time></trkpt><trkpt lat="49.5423816517" lon="-1.8277236074"><ele>28.02</ele><time>2018-09-05T08:47:12Z</time></trkpt><trkpt lat="49.5416892227" lon="-1.8270527199"><ele>24.65</ele><time>2018-09-05T08:47:26Z</time></trkpt><trkpt lat="49.5414377656" lon="-1.8265838362"><ele>23.69</ele><time>2018-09-05T08:47:32Z</time></trkpt><trkpt lat="49.5408540498" lon="-1.8255362660"><ele>21.77</ele><time>2018-09-05T08:47:45Z</time></trkpt><trkpt lat="49.5401938073" lon="-1.8243572675"><ele>21.29</ele><time>2018-09-05T08:48:00Z</time></trkpt><trkpt lat="49.5397595409" lon="-1.8234438077"><ele>18.40</ele><time>2018-09-05T08:48:11Z</time></trkpt><trkpt lat="49.5397065673" lon="-1.8229240458"><ele>17.92</ele><time>2018-09-05T08:48:17Z</time></trkpt><trkpt lat="49.5397405140" lon="-1.8227506243"><ele>17.92</ele><time>2018-09-05T08:48:19Z</time></trkpt><trkpt lat="49.5397071540" lon="-1.8220659066"><ele>18.88</ele><time>2018-09-05T08:48:28Z</time></trkpt><trkpt lat="49.5396412723" lon="-1.8215391040"><ele>20.81</ele><time>2018-09-05T08:48:37Z</time></trkpt><trkpt lat="49.5397491474" lon="-1.8214338273"><ele>21.77</ele><time>2018-09-05T08:48:40Z</time></trkpt><trkpt lat="49.5398944896" lon="-1.8213080987"><ele>22.25</ele><time>2018-09-05T08:48:44Z</time></trkpt><trkpt lat="49.5402369741" lon="-1.8210144807"><ele>23.69</ele><time>2018-09-05T08:48:54Z</time></trkpt><trkpt lat="49.5404103119" lon="-1.8208139855"><ele>24.65</ele><time>2018-09-05T08:49:00Z</time></trkpt><trkpt lat="49.5405961387" lon="-1.8201537430"><ele>24.65</ele><time>2018-09-05T08:49:09Z</time></trkpt><trkpt lat="49.5406854898" lon="-1.8195121083"><ele>24.65</ele><time>2018-09-05T08:49:19Z</time></trkpt><trkpt lat="49.5408989768" lon="-1.8191858009"><ele>25.13</ele><time>2018-09-05T08:49:29Z</time></trkpt><trkpt lat="49.5411290601" lon="-1.8188148178"><ele>27.05</ele><time>2018-09-05T08:49:41Z</time></trkpt><trkpt lat="49.5413792599" lon="-1.8184439186"><ele>28.50</ele><time>2018-09-05T08:49:54Z</time></trkpt><trkpt lat="49.5414147992" lon="-1.8184079602"><ele>28.98</ele><time>2018-09-05T08:49:56Z</time></trkpt><trkpt lat="49.5415178966" lon="-1.8183103949"><ele>30.42</ele><time>2018-09-05T08:50:03Z</time></trkpt><trkpt lat="49.5417362452" lon="-1.8181903660"><ele>37.15</ele><time>2018-09-05T08:50:18Z</time></trkpt><trkpt lat="49.5419322979" lon="-1.8181379791"><ele>42.44</ele><time>2018-09-05T08:50:31Z</time></trkpt><trkpt lat="49.5419628080" lon="-1.8181283399"><ele>42.92</ele><time>2018-09-05T08:50:33Z</time></trkpt><trkpt lat="49.5419834275" lon="-1.8181117438"><ele>43.88</ele><time>2018-09-05T08:50:35Z</time></trkpt><trkpt lat="49.5422368962" lon="-1.8181207124"><ele>47.24</ele><time>2018-09-05T08:50:51Z</time></trkpt><trkpt lat="49.5424681529" lon="-1.8180495501"><ele>50.13</ele><time>2018-09-05T08:51:06Z</time></trkpt><trkpt lat="49.5425247308" lon="-1.8176594563"><ele>50.61</ele><time>2018-09-05T08:51:18Z</time></trkpt><trkpt lat="49.5425411593" lon="-1.8171598110"><ele>52.53</ele><time>2018-09-05T08:51:30Z</time></trkpt><trkpt lat="49.5426289178" lon="-1.8168518599"><ele>53.49</ele><time>2018-09-05T08:51:40Z</time></trkpt><trkpt lat="49.5427875873" lon="-1.8165579066"><ele>56.37</ele><time>2018-09-05T08:51:53Z</time></trkpt><trkpt lat="49.5429217815" lon="-1.8162073754"><ele>59.26</ele><time>2018-09-05T08:52:07Z</time></trkpt><trkpt lat="49.5430235378" lon="-1.8160641287"><ele>58.78</ele><time>2018-09-05T08:52:17Z</time></trkpt><trkpt lat="49.5430572331" lon="-1.8159858417"><ele>58.78</ele><time>2018-09-05T08:52:21Z</time></trkpt><trkpt lat="49.5431446563" lon="-1.8158660643"><ele>59.26</ele><time>2018-09-05T08:52:27Z</time></trkpt><trkpt lat="49.5433093607" lon="-1.8156404234"><ele>60.22</ele><time>2018-09-05T08:52:39Z</time></trkpt><trkpt lat="49.5433872286" lon="-1.8155701831"><ele>61.18</ele><time>2018-09-05T08:52:46Z</time></trkpt><trkpt lat="49.5434559602" lon="-1.8155331351"><ele>61.66</ele><time>2018-09-05T08:52:50Z</time></trkpt><trkpt lat="49.5434907451" lon="-1.8155076541"><ele>62.14</ele><time>2018-09-05T08:52:52Z</time></trkpt><trkpt lat="49.5435693674" lon="-1.8154513277"><ele>62.62</ele><time>2018-09-05T08:52:56Z</time></trkpt><trkpt lat="49.5436179824" lon="-1.8154157884"><ele>63.58</ele><time>2018-09-05T08:52:59Z</time></trkpt><trkpt lat="49.5438287035" lon="-1.8153000344"><ele>59.26</ele><time>2018-09-05T08:53:12Z</time></trkpt><trkpt lat="49.5438994467" lon="-1.8152698595"><ele>59.74</ele><time>2018-09-05T08:53:17Z</time></trkpt><trkpt lat="49.5441086590" lon="-1.8151953444"><ele>62.14</ele><time>2018-09-05T08:53:28Z</time></trkpt><trkpt lat="49.5443088189" lon="-1.8151971884"><ele>64.07</ele><time>2018-09-05T08:53:39Z</time></trkpt><trkpt lat="49.5443904586" lon="-1.8152064085"><ele>65.51</ele><time>2018-09-05T08:53:43Z</time></trkpt><trkpt lat="49.5446041971" lon="-1.8153105956"><ele>71.27</ele><time>2018-09-05T08:53:52Z</time></trkpt><trkpt lat="49.5447231364" lon="-1.8151792511"><ele>74.64</ele><time>2018-09-05T08:54:00Z</time></trkpt><trkpt lat="49.5447211247" lon="-1.8150593061"><ele>75.12</ele><time>2018-09-05T08:54:04Z</time></trkpt><trkpt lat="49.5446944702" lon="-1.8149044923"><ele>76.08</ele><time>2018-09-05T08:54:08Z</time></trkpt><trkpt lat="49.5446475316" lon="-1.8147330824"><ele>76.56</ele><time>2018-09-05T08:54:13Z</time></trkpt><trkpt lat="49.5445599407" lon="-1.8142810464"><ele>84.73</ele><time>2018-09-05T08:54:26Z</time></trkpt><trkpt lat="49.5444850903" lon="-1.8138580117"><ele>90.50</ele><time>2018-09-05T08:54:38Z</time></trkpt><trkpt lat="49.5444788877" lon="-1.8137261644"><ele>91.46</ele><time>2018-09-05T08:54:41Z</time></trkpt><trkpt lat="49.5444345474" lon="-1.8132754695"><ele>96.75</ele><time>2018-09-05T08:54:52Z</time></trkpt><trkpt lat="49.5441809949" lon="-1.8128095195"><ele>96.75</ele><time>2018-09-05T08:55:03Z</time></trkpt><trkpt lat="49.5441507362" lon="-1.8127625808"><ele>96.75</ele><time>2018-09-05T08:55:04Z</time></trkpt><trkpt lat="49.5440597087" lon="-1.8124653585"><ele>96.27</ele><time>2018-09-05T08:55:09Z</time></trkpt><trkpt lat="49.5440794062" lon="-1.8121962156"><ele>96.27</ele><time>2018-09-05T08:55:13Z</time></trkpt><trkpt lat="49.5442089066" lon="-1.8119164277"><ele>96.27</ele><time>2018-09-05T08:55:18Z</time></trkpt><trkpt lat="49.5445747767" lon="-1.8114132620"><ele>95.79</ele><time>2018-09-05T08:55:28Z</time></trkpt><trkpt lat="49.5448605996" lon="-1.8109866232"><ele>94.35</ele><time>2018-09-05T08:55:35Z</time></trkpt><trkpt lat="49.5453904197" lon="-1.8099939544"><ele>90.50</ele><time>2018-09-05T08:55:50Z</time></trkpt><trkpt lat="49.5460546017" lon="-1.8089514133"><ele>90.02</ele><time>2018-09-05T08:56:07Z</time></trkpt><trkpt lat="49.5463017840" lon="-1.8086034805"><ele>90.02</ele><time>2018-09-05T08:56:13Z</time></trkpt><trkpt lat="49.5465798955" lon="-1.8078157492"><ele>90.50</ele><time>2018-09-05T08:56:24Z</time></trkpt><trkpt lat="49.5466803946" lon="-1.8075657170"><ele>90.98</ele><time>2018-09-05T08:56:28Z</time></trkpt><trkpt lat="49.5470989868" lon="-1.8069467135"><ele>95.31</ele><time>2018-09-05T08:56:43Z</time></trkpt><trkpt lat="49.5475178305" lon="-1.8066216633"><ele>98.19</ele><time>2018-09-05T08:56:57Z</time></trkpt><trkpt lat="49.5479908213" lon="-1.8063039053"><ele>100.11</ele><time>2018-09-05T08:57:12Z</time></trkpt><trkpt lat="49.5480460580" lon="-1.8062247802"><ele>99.63</ele><time>2018-09-05T08:57:14Z</time></trkpt><trkpt lat="49.5483289473" lon="-1.8055611849"><ele>99.63</ele><time>2018-09-05T08:57:27Z</time></trkpt><trkpt lat="49.5486946497" lon="-1.8045869563"><ele>101.08</ele><time>2018-09-05T08:57:43Z</time></trkpt><trkpt lat="49.5487347990" lon="-1.8043758161"><ele>101.56</ele><time>2018-09-05T08:57:46Z</time></trkpt><trkpt lat="49.5487136766" lon="-1.8041093554"><ele>101.08</ele><time>2018-09-05T08:57:50Z</time></trkpt><trkpt lat="49.5486705098" lon="-1.8039151467"><ele>101.56</ele><time>2018-09-05T08:57:53Z</time></trkpt><trkpt lat="49.5486587752" lon="-1.8035138212"><ele>101.08</ele><time>2018-09-05T08:57:58Z</time></trkpt><trkpt lat="49.5486393292" lon="-1.8029336259"><ele>100.11</ele><time>2018-09-05T08:58:05Z</time></trkpt><trkpt lat="49.5485730283" lon="-1.8021175638"><ele>100.60</ele><time>2018-09-05T08:58:14Z</time></trkpt><trkpt lat="49.5484948251" lon="-1.8013407290"><ele>102.52</ele><time>2018-09-05T08:58:23Z</time></trkpt><trkpt lat="49.5484498981" lon="-1.8009488750"><ele>102.52</ele><time>2018-09-05T08:58:27Z</time></trkpt><trkpt lat="49.5483865310" lon="-1.8006759603"><ele>102.52</ele><time>2018-09-05T08:58:30Z</time></trkpt><trkpt lat="49.5482960902" lon="-1.8003562745"><ele>102.04</ele><time>2018-09-05T08:58:34Z</time></trkpt><trkpt lat="49.5481988601" lon="-1.8000164721"><ele>101.56</ele><time>2018-09-05T08:58:39Z</time></trkpt><trkpt lat="49.5481411926" lon="-1.7998372670"><ele>101.56</ele><time>2018-09-05T08:58:42Z</time></trkpt><trkpt lat="49.5479420386" lon="-1.7990642041"><ele>101.56</ele><time>2018-09-05T08:58:56Z</time></trkpt><trkpt lat="49.5477275457" lon="-1.7983809952"><ele>103.96</ele><time>2018-09-05T08:59:11Z</time></trkpt><trkpt lat="49.5475096162" lon="-1.7977993749"><ele>104.92</ele><time>2018-09-05T08:59:25Z</time></trkpt><trkpt lat="49.5472684689" lon="-1.7971915193"><ele>105.40</ele><time>2018-09-05T08:59:40Z</time></trkpt><trkpt lat="49.5470987353" lon="-1.7966575921"><ele>108.29</ele><time>2018-09-05T08:59:55Z</time></trkpt><trkpt lat="49.5470044389" lon="-1.7962108366"><ele>109.73</ele><time>2018-09-05T09:00:08Z</time></trkpt><trkpt lat="49.5468005072" lon="-1.7957302183"><ele>111.65</ele><time>2018-09-05T09:00:22Z</time></trkpt><trkpt lat="49.5465627126" lon="-1.7953180801"><ele>112.61</ele><time>2018-09-05T09:00:34Z</time></trkpt><trkpt lat="49.5462684240" lon="-1.7949907668"><ele>113.09</ele><time>2018-09-05T09:00:46Z</time></trkpt><trkpt lat="49.5459768176" lon="-1.7947299220"><ele>114.53</ele><time>2018-09-05T09:00:59Z</time></trkpt><trkpt lat="49.5456740633" lon="-1.7944301851"><ele>117.90</ele><time>2018-09-05T09:01:15Z</time></trkpt><trkpt lat="49.5455824491" lon="-1.7943033669"><ele>118.38</ele><time>2018-09-05T09:01:21Z</time></trkpt><trkpt lat="49.5455246139" lon="-1.7942192964"><ele>118.86</ele><time>2018-09-05T09:01:26Z</time></trkpt><trkpt lat="49.5454062615" lon="-1.7939119320"><ele>120.78</ele><time>2018-09-05T09:01:39Z</time></trkpt><trkpt lat="49.5453742426" lon="-1.7938488163"><ele>121.26</ele><time>2018-09-05T09:01:42Z</time></trkpt><trkpt lat="49.5451472607" lon="-1.7936976906"><ele>121.74</ele><time>2018-09-05T09:01:56Z</time></trkpt><trkpt lat="49.5449933689" lon="-1.7935653403"><ele>121.74</ele><time>2018-09-05T09:02:07Z</time></trkpt><trkpt lat="49.5447825640" lon="-1.7934105266"><ele>123.67</ele><time>2018-09-05T09:02:20Z</time></trkpt><trkpt lat="49.5447007567" lon="-1.7933070101"><ele>125.11</ele><time>2018-09-05T09:02:25Z</time></trkpt><trkpt lat="49.5446399041" lon="-1.7927468475"><ele>127.51</ele><time>2018-09-05T09:02:38Z</time></trkpt><trkpt lat="49.5446175244" lon="-1.7925799638"><ele>127.51</ele><time>2018-09-05T09:02:41Z</time></trkpt><trkpt lat="49.5445290953" lon="-1.7923681531"><ele>127.99</ele><time>2018-09-05T09:02:45Z</time></trkpt><trkpt lat="49.5444674883" lon="-1.7922686599"><ele>127.99</ele><time>2018-09-05T09:02:47Z</time></trkpt><trkpt lat="49.5442451164" lon="-1.7921082303"><ele>127.99</ele><time>2018-09-05T09:02:52Z</time></trkpt><trkpt lat="49.5436086785" lon="-1.7919609603"><ele>128.47</ele><time>2018-09-05T09:03:04Z</time></trkpt><trkpt lat="49.5433351770" lon="-1.7918687593"><ele>129.92</ele><time>2018-09-05T09:03:09Z</time></trkpt><trkpt lat="49.5428693946" lon="-1.7915973533"><ele>129.92</ele><time>2018-09-05T09:03:19Z</time></trkpt><trkpt lat="49.5423606969" lon="-1.7912492529"><ele>129.43</ele><time>2018-09-05T09:03:31Z</time></trkpt><trkpt lat="49.5416956767" lon="-1.7908039223"><ele>130.88</ele><time>2018-09-05T09:03:45Z</time></trkpt><trkpt lat="49.5409326721" lon="-1.7906265613"><ele>130.88</ele><time>2018-09-05T09:03:59Z</time></trkpt><trkpt lat="49.5403043646" lon="-1.7906758469"><ele>131.36</ele><time>2018-09-05T09:04:10Z</time></trkpt><trkpt lat="49.5401460305" lon="-1.7906838097"><ele>131.84</ele><time>2018-09-05T09:04:13Z</time></trkpt><trkpt lat="49.5399886183" lon="-1.7906353623"><ele>131.84</ele><time>2018-09-05T09:04:16Z</time></trkpt><trkpt lat="49.5397390891" lon="-1.7904541455"><ele>132.80</ele><time>2018-09-05T09:04:22Z</time></trkpt><trkpt lat="49.5394381788" lon="-1.7902925424"><ele>133.28</ele><time>2018-09-05T09:04:28Z</time></trkpt><trkpt lat="49.5393248554" lon="-1.7902748566"><ele>133.76</ele><time>2018-09-05T09:04:30Z</time></trkpt><trkpt lat="49.5390929282" lon="-1.7903894372"><ele>134.72</ele><time>2018-09-05T09:04:34Z</time></trkpt><trkpt lat="49.5387895033" lon="-1.7903725058"><ele>133.76</ele><time>2018-09-05T09:04:41Z</time></trkpt><trkpt lat="49.5386106335" lon="-1.7904330231"><ele>132.80</ele><time>2018-09-05T09:04:47Z</time></trkpt><trkpt lat="49.5381917898" lon="-1.7906900123"><ele>134.24</ele><time>2018-09-05T09:04:59Z</time></trkpt><trkpt lat="49.5379154384" lon="-1.7908012401"><ele>133.76</ele><time>2018-09-05T09:05:06Z</time></trkpt><trkpt lat="49.5376962516" lon="-1.7908543814"><ele>133.76</ele><time>2018-09-05T09:05:11Z</time></trkpt><trkpt lat="49.5374605525" lon="-1.7910239473"><ele>133.76</ele><time>2018-09-05T09:05:17Z</time></trkpt><trkpt lat="49.5372052398" lon="-1.7914416175"><ele>129.43</ele><time>2018-09-05T09:05:24Z</time></trkpt><trkpt lat="49.5370089356" lon="-1.7917060666"><ele>127.99</ele><time>2018-09-05T09:05:30Z</time></trkpt><trkpt lat="49.5369273797" lon="-1.7917862814"><ele>127.03</ele><time>2018-09-05T09:05:32Z</time></trkpt><trkpt lat="49.5367463306" lon="-1.7919724435"><ele>125.11</ele><time>2018-09-05T09:05:37Z</time></trkpt><trkpt lat="49.5366127230" lon="-1.7920487188"><ele>124.63</ele><time>2018-09-05T09:05:40Z</time></trkpt><trkpt lat="49.5363839809" lon="-1.7921701726"><ele>122.22</ele><time>2018-09-05T09:05:46Z</time></trkpt><trkpt lat="49.5362947136" lon="-1.7923926283"><ele>119.82</ele><time>2018-09-05T09:05:49Z</time></trkpt><trkpt lat="49.5362585876" lon="-1.7925287504"><ele>119.34</ele><time>2018-09-05T09:05:51Z</time></trkpt><trkpt lat="49.5361197833" lon="-1.7930163257"><ele>115.50</ele><time>2018-09-05T09:05:58Z</time></trkpt><trkpt lat="49.5359804761" lon="-1.7934603989"><ele>114.53</ele><time>2018-09-05T09:06:05Z</time></trkpt><trkpt lat="49.5359443501" lon="-1.7935930006"><ele>113.57</ele><time>2018-09-05T09:06:07Z</time></trkpt><trkpt lat="49.5357262529" lon="-1.7941893730"><ele>114.05</ele><time>2018-09-05T09:06:19Z</time></trkpt><trkpt lat="49.5354912244" lon="-1.7944668978"><ele>116.94</ele><time>2018-09-05T09:06:29Z</time></trkpt><trkpt lat="49.5352650806" lon="-1.7949113064"><ele>119.34</ele><time>2018-09-05T09:06:40Z</time></trkpt><trkpt lat="49.5350488275" lon="-1.7955541983"><ele>122.71</ele><time>2018-09-05T09:06:52Z</time></trkpt><trkpt lat="49.5349560399" lon="-1.7957875505"><ele>120.30</ele><time>2018-09-05T09:06:56Z</time></trkpt><trkpt lat="49.5346724801" lon="-1.7961586174"><ele>116.94</ele><time>2018-09-05T09:07:04Z</time></trkpt><trkpt lat="49.5345569775" lon="-1.7965060472"><ele>114.53</ele><time>2018-09-05T09:07:09Z</time></trkpt><trkpt lat="49.5345095359" lon="-1.7970402259"><ele>111.17</ele><time>2018-09-05T09:07:15Z</time></trkpt><trkpt lat="49.5344517007" lon="-1.7972596642"><ele>109.73</ele><time>2018-09-05T09:07:18Z</time></trkpt><trkpt lat="49.5340890158" lon="-1.7980119400"><ele>105.40</ele><time>2018-09-05T09:07:28Z</time></trkpt><trkpt lat="49.5336534083" lon="-1.7986418400"><ele>98.67</ele><time>2018-09-05T09:07:38Z</time></trkpt><trkpt lat="49.5335441083" lon="-1.7989050318"><ele>95.79</ele><time>2018-09-05T09:07:42Z</time></trkpt><trkpt lat="49.5334555954" lon="-1.7995008174"><ele>92.42</ele><time>2018-09-05T09:07:49Z</time></trkpt><trkpt lat="49.5332760550" lon="-1.8004502356"><ele>91.46</ele><time>2018-09-05T09:08:03Z</time></trkpt><trkpt lat="49.5332645718" lon="-1.8005197216"><ele>91.46</ele><time>2018-09-05T09:08:04Z</time></trkpt><trkpt lat="49.5332742110" lon="-1.8009308539"><ele>91.94</ele><time>2018-09-05T09:08:10Z</time></trkpt><trkpt lat="49.5333089121" lon="-1.8012238014"><ele>92.42</ele><time>2018-09-05T09:08:14Z</time></trkpt><trkpt lat="49.5336529892" lon="-1.8024273589"><ele>88.58</ele><time>2018-09-05T09:08:28Z</time></trkpt><trkpt lat="49.5339251496" lon="-1.8035125639"><ele>79.93</ele><time>2018-09-05T09:08:40Z</time></trkpt><trkpt lat="49.5339821465" lon="-1.8040818628"><ele>78.00</ele><time>2018-09-05T09:08:49Z</time></trkpt><trkpt lat="49.5339989942" lon="-1.8041723035"><ele>78.00</ele><time>2018-09-05T09:08:50Z</time></trkpt><trkpt lat="49.5341135748" lon="-1.8045190629"><ele>76.08</ele><time>2018-09-05T09:08:54Z</time></trkpt><trkpt lat="49.5344106294" lon="-1.8059387896"><ele>70.31</ele><time>2018-09-05T09:09:05Z</time></trkpt><trkpt lat="49.5345128048" lon="-1.8063837849"><ele>67.91</ele><time>2018-09-05T09:09:08Z</time></trkpt><trkpt lat="49.5350284595" lon="-1.8072899524"><ele>61.66</ele><time>2018-09-05T09:09:16Z</time></trkpt><trkpt lat="49.5353579521" lon="-1.8076823093"><ele>58.30</ele><time>2018-09-05T09:09:21Z</time></trkpt><trkpt lat="49.5355534181" lon="-1.8082330842"><ele>53.49</ele><time>2018-09-05T09:09:26Z</time></trkpt><trkpt lat="49.5359136723" lon="-1.8101095408"><ele>42.44</ele><time>2018-09-05T09:09:39Z</time></trkpt><trkpt lat="49.5361647941" lon="-1.8113503139"><ele>39.07</ele><time>2018-09-05T09:09:49Z</time></trkpt><trkpt lat="49.5361086354" lon="-1.8122774363"><ele>37.15</ele><time>2018-09-05T09:09:58Z</time></trkpt><trkpt lat="49.5360704977" lon="-1.8124395423"><ele>37.15</ele><time>2018-09-05T09:10:00Z</time></trkpt><trkpt lat="49.5359985810" lon="-1.8125952780"><ele>35.71</ele><time>2018-09-05T09:10:08Z</time></trkpt><trkpt lat="49.5360104833" lon="-1.8125972059"><ele>34.74</ele><time>2018-09-05T09:10:28Z</time></trkpt><trkpt lat="49.5359089784" lon="-1.8126613274"><ele>36.19</ele><time>2018-09-05T09:10:37Z</time></trkpt><trkpt lat="49.5358397439" lon="-1.8127071764"><ele>36.19</ele><time>2018-09-05T09:10:39Z</time></trkpt><trkpt lat="49.5355462935" lon="-1.8128703721"><ele>34.74</ele><time>2018-09-05T09:10:48Z</time></trkpt><trkpt lat="49.5347158145" lon="-1.8136596959"><ele>28.50</ele><time>2018-09-05T09:11:01Z</time></trkpt><trkpt lat="49.5345795248" lon="-1.8137655593"><ele>28.02</ele><time>2018-09-05T09:11:03Z</time></trkpt><trkpt lat="49.5343206916" lon="-1.8138732668"><ele>27.53</ele><time>2018-09-05T09:11:07Z</time></trkpt><trkpt lat="49.5336358901" lon="-1.8140466046"><ele>25.61</ele><time>2018-09-05T09:11:19Z</time></trkpt><trkpt lat="49.5334611274" lon="-1.8140259851"><ele>24.65</ele><time>2018-09-05T09:11:23Z</time></trkpt><trkpt lat="49.5332192257" lon="-1.8140419945"><ele>25.13</ele><time>2018-09-05T09:11:31Z</time></trkpt><trkpt lat="49.5332583692" lon="-1.8138050381"><ele>24.65</ele><time>2018-09-05T09:11:38Z</time></trkpt><trkpt lat="49.5332411025" lon="-1.8137620389"><ele>24.65</ele><time>2018-09-05T09:11:39Z</time></trkpt><trkpt lat="49.5328915771" lon="-1.8131720368"><ele>26.57</ele><time>2018-09-05T09:11:54Z</time></trkpt><trkpt lat="49.5324404631" lon="-1.8131106813"><ele>28.98</ele><time>2018-09-05T09:12:06Z</time></trkpt><trkpt lat="49.5320009161" lon="-1.8129911553"><ele>30.90</ele><time>2018-09-05T09:12:19Z</time></trkpt><trkpt lat="49.5314719342" lon="-1.8126622494"><ele>32.82</ele><time>2018-09-05T09:12:36Z</time></trkpt><trkpt lat="49.5311866980" lon="-1.8125392869"><ele>34.74</ele><time>2018-09-05T09:12:46Z</time></trkpt><trkpt lat="49.5310100075" lon="-1.8122343533"><ele>35.71</ele><time>2018-09-05T09:12:56Z</time></trkpt><trkpt lat="49.5310804993" lon="-1.8120443355"><ele>35.71</ele><time>2018-09-05T09:13:00Z</time></trkpt><trkpt lat="49.5312611293" lon="-1.8116323650"><ele>32.34</ele><time>2018-09-05T09:13:05Z</time></trkpt><trkpt lat="49.5311252587" lon="-1.8112800736"><ele>29.94</ele><time>2018-09-05T09:13:11Z</time></trkpt><trkpt lat="49.5310412720" lon="-1.8112056423"><ele>29.46</ele><time>2018-09-05T09:13:13Z</time></trkpt><trkpt lat="49.5306583028" lon="-1.8108126987"><ele>29.46</ele><time>2018-09-05T09:13:26Z</time></trkpt><trkpt lat="49.5304327458" lon="-1.8105013110"><ele>30.90</ele><time>2018-09-05T09:13:35Z</time></trkpt><trkpt lat="49.5302548818" lon="-1.8100741692"><ele>38.11</ele><time>2018-09-05T09:13:47Z</time></trkpt><trkpt lat="49.5299800392" lon="-1.8097049464"><ele>42.44</ele><time>2018-09-05T09:13:53Z</time></trkpt><trkpt lat="49.5297374669" lon="-1.8092085700"><ele>46.28</ele><time>2018-09-05T09:13:59Z</time></trkpt><trkpt lat="49.5296378061" lon="-1.8088432029"><ele>48.68</ele><time>2018-09-05T09:14:03Z</time></trkpt><trkpt lat="49.5295965672" lon="-1.8084779195"><ele>50.61</ele><time>2018-09-05T09:14:07Z</time></trkpt><trkpt lat="49.5295544062" lon="-1.8082110398"><ele>51.57</ele><time>2018-09-05T09:14:10Z</time></trkpt><trkpt lat="49.5295564178" lon="-1.8077257276"><ele>53.97</ele><time>2018-09-05T09:14:15Z</time></trkpt><trkpt lat="49.5295604412" lon="-1.8073890265"><ele>54.45</ele><time>2018-09-05T09:14:19Z</time></trkpt><trkpt lat="49.5294946432" lon="-1.8066417798"><ele>56.86</ele><time>2018-09-05T09:14:30Z</time></trkpt><trkpt lat="49.5294827409" lon="-1.8066014629"><ele>56.86</ele><time>2018-09-05T09:14:31Z</time></trkpt><trkpt lat="49.5293162763" lon="-1.8064424582"><ele>53.97</ele><time>2018-09-05T09:14:36Z</time></trkpt><trkpt lat="49.5290618856" lon="-1.8064615689"><ele>51.57</ele><time>2018-09-05T09:14:47Z</time></trkpt><trkpt lat="49.5288011245" lon="-1.8064870499"><ele>49.65</ele><time>2018-09-05T09:14:59Z</time></trkpt><trkpt lat="49.5285587199" lon="-1.8064766563"><ele>47.72</ele><time>2018-09-05T09:15:08Z</time></trkpt><trkpt lat="49.5284766611" lon="-1.8064831942"><ele>45.32</ele><time>2018-09-05T09:15:11Z</time></trkpt><trkpt lat="49.5282717235" lon="-1.8066337332"><ele>46.28</ele><time>2018-09-05T09:15:22Z</time></trkpt><trkpt lat="49.5281775109" lon="-1.8065419514"><ele>48.20</ele><time>2018-09-05T09:15:27Z</time></trkpt><trkpt lat="49.5279995631" lon="-1.8061857205"><ele>53.01</ele><time>2018-09-05T09:15:39Z</time></trkpt><trkpt lat="49.5280007366" lon="-1.8060324155"><ele>53.97</ele><time>2018-09-05T09:15:43Z</time></trkpt><trkpt lat="49.5278932806" lon="-1.8059577327"><ele>52.53</ele><time>2018-09-05T09:15:48Z</time></trkpt><trkpt lat="49.5275637042" lon="-1.8059305754"><ele>52.05</ele><time>2018-09-05T09:16:03Z</time></trkpt><trkpt lat="49.5273789670" lon="-1.8060713913"><ele>54.45</ele><time>2018-09-05T09:16:15Z</time></trkpt><trkpt lat="49.5273682382" lon="-1.8061158154"><ele>55.89</ele><time>2018-09-05T09:16:18Z</time></trkpt><trkpt lat="49.5272999257" lon="-1.8062939309"><ele>58.30</ele><time>2018-09-05T09:16:28Z</time></trkpt><trkpt lat="49.5271721855" lon="-1.8064011354"><ele>63.10</ele><time>2018-09-05T09:16:41Z</time></trkpt><trkpt lat="49.5271622110" lon="-1.8064025603"><ele>63.58</ele><time>2018-09-05T09:16:42Z</time></trkpt><trkpt lat="49.5270072296" lon="-1.8064774945"><ele>65.51</ele><time>2018-09-05T09:16:56Z</time></trkpt><trkpt lat="49.5268830098" lon="-1.8065189011"><ele>67.91</ele><time>2018-09-05T09:17:07Z</time></trkpt><trkpt lat="49.5268179663" lon="-1.8065437116"><ele>68.39</ele><time>2018-09-05T09:17:12Z</time></trkpt><trkpt lat="49.5266580395" lon="-1.8066308834"><ele>69.35</ele><time>2018-09-05T09:17:26Z</time></trkpt><trkpt lat="49.5265023038" lon="-1.8067235034"><ele>67.43</ele><time>2018-09-05T09:17:40Z</time></trkpt><trkpt lat="49.5263200812" lon="-1.8067670055"><ele>68.87</ele><time>2018-09-05T09:17:54Z</time></trkpt><trkpt lat="49.5261116233" lon="-1.8068845198"><ele>68.39</ele><time>2018-09-05T09:18:07Z</time></trkpt><trkpt lat="49.5260413829" lon="-1.8069192208"><ele>68.87</ele><time>2018-09-05T09:18:11Z</time></trkpt><trkpt lat="49.5259463321" lon="-1.8068327196"><ele>70.31</ele><time>2018-09-05T09:18:16Z</time></trkpt><trkpt lat="49.5257208589" lon="-1.8064429611"><ele>71.76</ele><time>2018-09-05T09:18:28Z</time></trkpt><trkpt lat="49.5256085414" lon="-1.8061755784"><ele>76.08</ele><time>2018-09-05T09:18:37Z</time></trkpt><trkpt lat="49.5256056078" lon="-1.8061519414"><ele>77.04</ele><time>2018-09-05T09:18:38Z</time></trkpt><trkpt lat="49.5252891909" lon="-1.8055605143"><ele>75.60</ele><time>2018-09-05T09:18:52Z</time></trkpt><trkpt lat="49.5249305293" lon="-1.8051298521"><ele>73.68</ele><time>2018-09-05T09:19:06Z</time></trkpt><trkpt lat="49.5246980991" lon="-1.8048823345"><ele>71.76</ele><time>2018-09-05T09:19:14Z</time></trkpt><trkpt lat="49.5244112704" lon="-1.8046152033"><ele>69.35</ele><time>2018-09-05T09:19:22Z</time></trkpt><trkpt lat="49.5242002141" lon="-1.8046920653"><ele>68.87</ele><time>2018-09-05T09:19:28Z</time></trkpt><trkpt lat="49.5237352699" lon="-1.8055223767"><ele>63.10</ele><time>2018-09-05T09:19:39Z</time></trkpt><trkpt lat="49.5235281531" lon="-1.8059807830"><ele>58.78</ele><time>2018-09-05T09:19:43Z</time></trkpt><trkpt lat="49.5233890973" lon="-1.8065544404"><ele>54.45</ele><time>2018-09-05T09:19:47Z</time></trkpt><trkpt lat="49.5231728442" lon="-1.8071153574"><ele>51.57</ele><time>2018-09-05T09:19:52Z</time></trkpt><trkpt lat="49.5230859239" lon="-1.8072931375"><ele>50.61</ele><time>2018-09-05T09:19:54Z</time></trkpt><trkpt lat="49.5230594371" lon="-1.8075171858"><ele>50.13</ele><time>2018-09-05T09:19:57Z</time></trkpt><trkpt lat="49.5228935592" lon="-1.8077745941"><ele>53.01</ele><time>2018-09-05T09:20:04Z</time></trkpt><trkpt lat="49.5225286111" lon="-1.8077657931"><ele>59.26</ele><time>2018-09-05T09:20:19Z</time></trkpt><trkpt lat="49.5222681854" lon="-1.8078415655"><ele>62.14</ele><time>2018-09-05T09:20:32Z</time></trkpt><trkpt lat="49.5219370164" lon="-1.8080725707"><ele>64.55</ele><time>2018-09-05T09:20:49Z</time></trkpt><trkpt lat="49.5216946118" lon="-1.8082495127"><ele>66.95</ele><time>2018-09-05T09:21:00Z</time></trkpt><trkpt lat="49.5213577431" lon="-1.8085318990"><ele>70.31</ele><time>2018-09-05T09:21:16Z</time></trkpt><trkpt lat="49.5209977403" lon="-1.8089209031"><ele>71.76</ele><time>2018-09-05T09:21:32Z</time></trkpt><trkpt lat="49.5207070559" lon="-1.8092304468"><ele>72.24</ele><time>2018-09-05T09:21:43Z</time></trkpt><trkpt lat="49.5204233285" lon="-1.8092272617"><ele>72.24</ele><time>2018-09-05T09:21:53Z</time></trkpt><trkpt lat="49.5202215761" lon="-1.8088813405"><ele>74.16</ele><time>2018-09-05T09:22:05Z</time></trkpt><trkpt lat="49.5200204104" lon="-1.8085542787"><ele>77.04</ele><time>2018-09-05T09:22:20Z</time></trkpt><trkpt lat="49.5199956838" lon="-1.8085064180"><ele>77.52</ele><time>2018-09-05T09:22:22Z</time></trkpt><trkpt lat="49.5198033191" lon="-1.8082066812"><ele>79.45</ele><time>2018-09-05T09:22:38Z</time></trkpt><trkpt lat="49.5197167341" lon="-1.8080858141"><ele>80.41</ele><time>2018-09-05T09:22:45Z</time></trkpt><trkpt lat="49.5196692087" lon="-1.8080040067"><ele>80.89</ele><time>2018-09-05T09:22:49Z</time></trkpt><trkpt lat="49.5194955356" lon="-1.8076964747"><ele>82.33</ele><time>2018-09-05T09:23:04Z</time></trkpt><trkpt lat="49.5193513669" lon="-1.8077103049"><ele>83.29</ele><time>2018-09-05T09:23:11Z</time></trkpt><trkpt lat="49.5189282484" lon="-1.8079111353"><ele>84.73</ele><time>2018-09-05T09:23:27Z</time></trkpt><trkpt lat="49.5185410045" lon="-1.8081873190"><ele>85.69</ele><time>2018-09-05T09:23:42Z</time></trkpt><trkpt lat="49.5182046387" lon="-1.8083803542"><ele>90.02</ele><time>2018-09-05T09:23:57Z</time></trkpt><trkpt lat="49.5179354958" lon="-1.8084039073"><ele>92.42</ele><time>2018-09-05T09:24:10Z</time></trkpt><trkpt lat="49.5176480804" lon="-1.8084611557"><ele>94.83</ele><time>2018-09-05T09:24:24Z</time></trkpt><trkpt lat="49.5173955336" lon="-1.8085725512"><ele>96.75</ele><time>2018-09-05T09:24:35Z</time></trkpt><trkpt lat="49.5173268858" lon="-1.8086101022"><ele>97.23</ele><time>2018-09-05T09:24:39Z</time></trkpt><trkpt lat="49.5171038434" lon="-1.8087724596"><ele>100.60</ele><time>2018-09-05T09:24:51Z</time></trkpt><trkpt lat="49.5168092195" lon="-1.8089919817"><ele>101.08</ele><time>2018-09-05T09:25:07Z</time></trkpt><trkpt lat="49.5166663080" lon="-1.8090919778"><ele>99.63</ele><time>2018-09-05T09:25:13Z</time></trkpt><trkpt lat="49.5166853350" lon="-1.8092471268"><ele>97.71</ele><time>2018-09-05T09:25:18Z</time></trkpt><trkpt lat="49.5169492811" lon="-1.8101718184"><ele>93.87</ele><time>2018-09-05T09:25:30Z</time></trkpt><trkpt lat="49.5172925200" lon="-1.8112965021"><ele>88.10</ele><time>2018-09-05T09:25:42Z</time></trkpt><trkpt lat="49.5173050091" lon="-1.8117623683"><ele>85.21</ele><time>2018-09-05T09:25:48Z</time></trkpt><trkpt lat="49.5170928631" lon="-1.8118654657"><ele>86.66</ele><time>2018-09-05T09:25:56Z</time></trkpt><trkpt lat="49.5172636863" lon="-1.8119041063"><ele>86.66</ele><time>2018-09-05T09:26:03Z</time></trkpt><trkpt lat="49.5172745828" lon="-1.8120787013"><ele>84.73</ele><time>2018-09-05T09:26:07Z</time></trkpt><trkpt lat="49.5172931906" lon="-1.8124162406"><ele>83.77</ele><time>2018-09-05T09:26:13Z</time></trkpt><trkpt lat="49.5173162408" lon="-1.8125318270"><ele>83.77</ele><time>2018-09-05T09:26:21Z</time></trkpt></trkseg></trk></gpx>


Partager le fichier


Télécharger Tracé_05-SEP-18 112643 AM.gpx